<?xml version="1.0" encoding="UTF-8" standalone="no" ?>
<gpx xmlns="http://www.topografix.com/GPX/1/1" xmlns:xsi="http://www.w3.org/2001/XMLSchema-instance" xsi:schemaLocation="http://www.topografix.com/GPX/1/1 http://www.topografix.com/GPX/1/1/gpx.xsd" version="1.1" creator="VisuGPX - https://www.visugpx.com">
  <metadata>
    <name>Circuit VLN du jeudi 8mai2014</name>
    <desc><![CDATA[parcours VTT]]></desc>
  </metadata>
  <trk>
    <name><![CDATA[Circuit VLN du jeudi 8mai2014_1]]></name>
    <trkseg>
      <trkpt lat="47.30865" lon="6.26534">
        <ele>606</ele>
        <time>2014-05-08T09:24:36.000Z</time>
      </trkpt>
      <trkpt lat="47.30842" lon="6.26528">
        <ele>601</ele>
        <time>2014-05-08T09:24:57.000Z</time>
      </trkpt>
      <trkpt lat="47.3083" lon="6.26528">
        <ele>601</ele>
        <time>2014-05-08T09:25:01.000Z</time>
      </trkpt>
      <trkpt lat="47.30815" lon="6.26517">
        <ele>603</ele>
        <time>2014-05-08T09:25:05.000Z</time>
      </trkpt>
      <trkpt lat="47.30805" lon="6.26505">
        <ele>602</ele>
        <time>2014-05-08T09:25:09.000Z</time>
      </trkpt>
      <trkpt lat="47.30805" lon="6.26505">
        <ele>602</ele>
        <time>2014-05-08T09:25:11.000Z</time>
      </trkpt>
      <trkpt lat="47.30805" lon="6.26505">
        <ele>602</ele>
        <time>2014-05-08T09:25:13.000Z</time>
      </trkpt>
      <trkpt lat="47.30782" lon="6.26478">
        <ele>601</ele>
        <time>2014-05-08T09:25:17.000Z</time>
      </trkpt>
      <trkpt lat="47.30772" lon="6.26469">
        <ele>601</ele>
        <time>2014-05-08T09:25:19.000Z</time>
      </trkpt>
      <trkpt lat="47.30767" lon="6.26458">
        <ele>602</ele>
        <time>2014-05-08T09:25:21.000Z</time>
      </trkpt>
      <trkpt lat="47.30767" lon="6.26458">
        <ele>602</ele>
        <time>2014-05-08T09:25:23.000Z</time>
      </trkpt>
      <trkpt lat="47.30767" lon="6.26458">
        <ele>602</ele>
        <time>2014-05-08T09:25:25.000Z</time>
      </trkpt>
      <trkpt lat="47.30767" lon="6.26458">
        <ele>602</ele>
        <time>2014-05-08T09:25:27.000Z</time>
      </trkpt>
      <trkpt lat="47.30767" lon="6.26458">
        <ele>602</ele>
        <time>2014-05-08T09:25:29.000Z</time>
      </trkpt>
      <trkpt lat="47.30767" lon="6.26458">
        <ele>602</ele>
        <time>2014-05-08T09:25:31.000Z</time>
      </trkpt>
      <trkpt lat="47.30767" lon="6.26458">
        <ele>602</ele>
        <time>2014-05-08T09:25:33.000Z</time>
      </trkpt>
      <trkpt lat="47.30718" lon="6.26398">
        <ele>592</ele>
        <time>2014-05-08T09:25:36.000Z</time>
      </trkpt>
      <trkpt lat="47.30715" lon="6.26384">
        <ele>592</ele>
        <time>2014-05-08T09:25:38.000Z</time>
      </trkpt>
      <trkpt lat="47.30715" lon="6.26384">
        <ele>592</ele>
        <time>2014-05-08T09:25:40.000Z</time>
      </trkpt>
      <trkpt lat="47.30715" lon="6.26384">
        <ele>592</ele>
        <time>2014-05-08T09:25:42.000Z</time>
      </trkpt>
      <trkpt lat="47.30715" lon="6.26384">
        <ele>592</ele>
        <time>2014-05-08T09:25:45.000Z</time>
      </trkpt>
      <trkpt lat="47.30715" lon="6.26384">
        <ele>592</ele>
        <time>2014-05-08T09:25:46.000Z</time>
      </trkpt>
      <trkpt lat="47.30715" lon="6.26384">
        <ele>592</ele>
        <time>2014-05-08T09:25:48.000Z</time>
      </trkpt>
      <trkpt lat="47.30715" lon="6.26384">
        <ele>592</ele>
        <time>2014-05-08T09:25:50.000Z</time>
      </trkpt>
      <trkpt lat="47.30684" lon="6.26334">
        <ele>599</ele>
        <time>2014-05-08T09:25:52.000Z</time>
      </trkpt>
      <trkpt lat="47.30677" lon="6.26312">
        <ele>600</ele>
        <time>2014-05-08T09:25:56.000Z</time>
      </trkpt>
      <trkpt lat="47.30663" lon="6.26291">
        <ele>600</ele>
        <time>2014-05-08T09:26:00.000Z</time>
      </trkpt>
      <trkpt lat="47.3065" lon="6.26279">
        <ele>597</ele>
        <time>2014-05-08T09:26:02.000Z</time>
      </trkpt>
      <trkpt lat="47.3064" lon="6.26263">
        <ele>597</ele>
        <time>2014-05-08T09:26:05.000Z</time>
      </trkpt>
      <trkpt lat="47.3064" lon="6.26263">
        <ele>597</ele>
        <time>2014-05-08T09:26:07.000Z</time>
      </trkpt>
      <trkpt lat="47.3064" lon="6.26263">
        <ele>597</ele>
        <time>2014-05-08T09:26:09.000Z</time>
      </trkpt>
      <trkpt lat="47.3064" lon="6.26263">
        <ele>597</ele>
        <time>2014-05-08T09:26:11.000Z</time>
      </trkpt>
      <trkpt lat="47.3064" lon="6.26263">
        <ele>597</ele>
        <time>2014-05-08T09:26:13.000Z</time>
      </trkpt>
      <trkpt lat="47.3064" lon="6.26263">
        <ele>597</ele>
        <time>2014-05-08T09:26:15.000Z</time>
      </trkpt>
      <trkpt lat="47.3064" lon="6.26263">
        <ele>597</ele>
        <time>2014-05-08T09:26:18.000Z</time>
      </trkpt>
      <trkpt lat="47.3064" lon="6.26263">
        <ele>597</ele>
        <time>2014-05-08T09:26:19.000Z</time>
      </trkpt>
      <trkpt lat="47.3064" lon="6.26263">
        <ele>597</ele>
        <time>2014-05-08T09:26:21.000Z</time>
      </trkpt>
      <trkpt lat="47.3064" lon="6.26263">
        <ele>597</ele>
        <time>2014-05-08T09:26:23.000Z</time>
      </trkpt>
      <trkpt lat="47.30634" lon="6.2625">
        <ele>595</ele>
        <time>2014-05-08T09:26:37.000Z</time>
      </trkpt>
      <trkpt lat="47.30629" lon="6.26241">
        <ele>595</ele>
        <time>2014-05-08T09:26:39.000Z</time>
      </trkpt>
      <trkpt lat="47.30625" lon="6.26232">
        <ele>596</ele>
        <time>2014-05-08T09:26:41.000Z</time>
      </trkpt>
      <trkpt lat="47.30621" lon="6.26224">
        <ele>598</ele>
        <time>2014-05-08T09:26:43.000Z</time>
      </trkpt>
      <trkpt lat="47.30618" lon="6.26215">
        <ele>596</ele>
        <time>2014-05-08T09:26:45.000Z</time>
      </trkpt>
      <trkpt lat="47.30613" lon="6.26196">
        <ele>596</ele>
        <time>2014-05-08T09:26:47.000Z</time>
      </trkpt>
      <trkpt lat="47.30607" lon="6.26179">
        <ele>598</ele>
        <time>2014-05-08T09:26:51.000Z</time>
      </trkpt>
      <trkpt lat="47.30607" lon="6.26179">
        <ele>598</ele>
        <time>2014-05-08T09:26:53.000Z</time>
      </trkpt>
      <trkpt lat="47.30607" lon="6.26179">
        <ele>598</ele>
        <time>2014-05-08T09:26:55.000Z</time>
      </trkpt>
      <trkpt lat="47.30607" lon="6.26179">
        <ele>598</ele>
        <time>2014-05-08T09:26:57.000Z</time>
      </trkpt>
      <trkpt lat="47.30607" lon="6.26179">
        <ele>598</ele>
        <time>2014-05-08T09:26:59.000Z</time>
      </trkpt>
      <trkpt lat="47.30607" lon="6.26179">
        <ele>598</ele>
        <time>2014-05-08T09:27:01.000Z</time>
      </trkpt>
      <trkpt lat="47.30607" lon="6.26179">
        <ele>598</ele>
        <time>2014-05-08T09:27:03.000Z</time>
      </trkpt>
      <trkpt lat="47.30607" lon="6.26179">
        <ele>598</ele>
        <time>2014-05-08T09:27:05.000Z</time>
      </trkpt>
      <trkpt lat="47.306" lon="6.26154">
        <ele>599</ele>
        <time>2014-05-08T09:27:07.000Z</time>
      </trkpt>
      <trkpt lat="47.30591" lon="6.26136">
        <ele>599</ele>
        <time>2014-05-08T09:27:11.000Z</time>
      </trkpt>
      <trkpt lat="47.30581" lon="6.26124">
        <ele>601</ele>
        <time>2014-05-08T09:27:15.000Z</time>
      </trkpt>
      <trkpt lat="47.30572" lon="6.26112">
        <ele>601</ele>
        <time>2014-05-08T09:27:19.000Z</time>
      </trkpt>
      <trkpt lat="47.30558" lon="6.26098">
        <ele>603</ele>
        <time>2014-05-08T09:27:23.000Z</time>
      </trkpt>
      <trkpt lat="47.30545" lon="6.26088">
        <ele>601</ele>
        <time>2014-05-08T09:27:27.000Z</time>
      </trkpt>
      <trkpt lat="47.30545" lon="6.26088">
        <ele>601</ele>
        <time>2014-05-08T09:27:29.000Z</time>
      </trkpt>
      <trkpt lat="47.30532" lon="6.26069">
        <ele>599</ele>
        <time>2014-05-08T09:27:31.000Z</time>
      </trkpt>
      <trkpt lat="47.30523" lon="6.26054">
        <ele>599</ele>
        <time>2014-05-08T09:27:33.000Z</time>
      </trkpt>
      <trkpt lat="47.30515" lon="6.26041">
        <ele>598</ele>
        <time>2014-05-08T09:27:35.000Z</time>
      </trkpt>
      <trkpt lat="47.30505" lon="6.26032">
        <ele>597</ele>
        <time>2014-05-08T09:27:37.000Z</time>
      </trkpt>
      <trkpt lat="47.30494" lon="6.26025">
        <ele>597</ele>
        <time>2014-05-08T09:27:39.000Z</time>
      </trkpt>
      <trkpt lat="47.30484" lon="6.26018">
        <ele>597</ele>
        <time>2014-05-08T09:27:41.000Z</time>
      </trkpt>
      <trkpt lat="47.30471" lon="6.26009">
        <ele>597</ele>
        <time>2014-05-08T09:27:43.000Z</time>
      </trkpt>
      <trkpt lat="47.30461" lon="6.26003">
        <ele>596</ele>
        <time>2014-05-08T09:27:45.000Z</time>
      </trkpt>
      <trkpt lat="47.3045" lon="6.25995">
        <ele>597</ele>
        <time>2014-05-08T09:27:47.000Z</time>
      </trkpt>
      <trkpt lat="47.3045" lon="6.25995">
        <ele>597</ele>
        <time>2014-05-08T09:27:49.000Z</time>
      </trkpt>
      <trkpt lat="47.3045" lon="6.25995">
        <ele>597</ele>
        <time>2014-05-08T09:27:51.000Z</time>
      </trkpt>
      <trkpt lat="47.3045" lon="6.25995">
        <ele>597</ele>
        <time>2014-05-08T09:27:53.000Z</time>
      </trkpt>
      <trkpt lat="47.3045" lon="6.25995">
        <ele>597</ele>
        <time>2014-05-08T09:27:55.000Z</time>
      </trkpt>
      <trkpt lat="47.3045" lon="6.25995">
        <ele>597</ele>
        <time>2014-05-08T09:27:57.000Z</time>
      </trkpt>
      <trkpt lat="47.3045" lon="6.25995">
        <ele>597</ele>
        <time>2014-05-08T09:27:59.000Z</time>
      </trkpt>
      <trkpt lat="47.3045" lon="6.25995">
        <ele>597</ele>
        <time>2014-05-08T09:28:01.000Z</time>
      </trkpt>
      <trkpt lat="47.3045" lon="6.25995">
        <ele>597</ele>
        <time>2014-05-08T09:28:03.000Z</time>
      </trkpt>
      <trkpt lat="47.3045" lon="6.25995">
        <ele>597</ele>
        <time>2014-05-08T09:28:05.000Z</time>
      </trkpt>
      <trkpt lat="47.3045" lon="6.25995">
        <ele>597</ele>
        <time>2014-05-08T09:28:07.000Z</time>
      </trkpt>
      <trkpt lat="47.3045" lon="6.25995">
        <ele>597</ele>
        <time>2014-05-08T09:28:09.000Z</time>
      </trkpt>
      <trkpt lat="47.30355" lon="6.25862">
        <ele>607</ele>
        <time>2014-05-08T09:28:14.000Z</time>
      </trkpt>
      <trkpt lat="47.30347" lon="6.25848">
        <ele>604</ele>
        <time>2014-05-08T09:28:16.000Z</time>
      </trkpt>
      <trkpt lat="47.30341" lon="6.25832">
        <ele>605</ele>
        <time>2014-05-08T09:28:18.000Z</time>
      </trkpt>
      <trkpt lat="47.30334" lon="6.25819">
        <ele>604</ele>
        <time>2014-05-08T09:28:20.000Z</time>
      </trkpt>
      <trkpt lat="47.30328" lon="6.25806">
        <ele>603</ele>
        <time>2014-05-08T09:28:22.000Z</time>
      </trkpt>
      <trkpt lat="47.30325" lon="6.25792">
        <ele>601</ele>
        <time>2014-05-08T09:28:24.000Z</time>
      </trkpt>
      <trkpt lat="47.30321" lon="6.25773">
        <ele>600</ele>
        <time>2014-05-08T09:28:26.000Z</time>
      </trkpt>
      <trkpt lat="47.30323" lon="6.25732">
        <ele>598</ele>
        <time>2014-05-08T09:28:29.000Z</time>
      </trkpt>
      <trkpt lat="47.3032" lon="6.25705">
        <ele>596</ele>
        <time>2014-05-08T09:28:31.000Z</time>
      </trkpt>
      <trkpt lat="47.3032" lon="6.25705">
        <ele>596</ele>
        <time>2014-05-08T09:28:35.000Z</time>
      </trkpt>
      <trkpt lat="47.3032" lon="6.25705">
        <ele>596</ele>
        <time>2014-05-08T09:28:38.000Z</time>
      </trkpt>
      <trkpt lat="47.30297" lon="6.25383">
        <ele>598</ele>
        <time>2014-05-08T09:29:35.000Z</time>
      </trkpt>
      <trkpt lat="47.30295" lon="6.25368">
        <ele>599</ele>
        <time>2014-05-08T09:29:39.000Z</time>
      </trkpt>
      <trkpt lat="47.30293" lon="6.25359">
        <ele>602</ele>
        <time>2014-05-08T09:29:43.000Z</time>
      </trkpt>
      <trkpt lat="47.30291" lon="6.25351">
        <ele>602</ele>
        <time>2014-05-08T09:29:44.000Z</time>
      </trkpt>
      <trkpt lat="47.30289" lon="6.25343">
        <ele>602</ele>
        <time>2014-05-08T09:29:46.000Z</time>
      </trkpt>
      <trkpt lat="47.30287" lon="6.25336">
        <ele>603</ele>
        <time>2014-05-08T09:29:48.000Z</time>
      </trkpt>
      <trkpt lat="47.30285" lon="6.25328">
        <ele>605</ele>
        <time>2014-05-08T09:29:50.000Z</time>
      </trkpt>
      <trkpt lat="47.3028" lon="6.25314">
        <ele>606</ele>
        <time>2014-05-08T09:29:52.000Z</time>
      </trkpt>
      <trkpt lat="47.30276" lon="6.25301">
        <ele>606</ele>
        <time>2014-05-08T09:29:56.000Z</time>
      </trkpt>
      <trkpt lat="47.30273" lon="6.25286">
        <ele>607</ele>
        <time>2014-05-08T09:30:00.000Z</time>
      </trkpt>
      <trkpt lat="47.30269" lon="6.25272">
        <ele>607</ele>
        <time>2014-05-08T09:30:04.000Z</time>
      </trkpt>
      <trkpt lat="47.30265" lon="6.25257">
        <ele>609</ele>
        <time>2014-05-08T09:30:08.000Z</time>
      </trkpt>
      <trkpt lat="47.3026" lon="6.25245">
        <ele>608</ele>
        <time>2014-05-08T09:30:12.000Z</time>
      </trkpt>
      <trkpt lat="47.30254" lon="6.25233">
        <ele>607</ele>
        <time>2014-05-08T09:30:16.000Z</time>
      </trkpt>
      <trkpt lat="47.30247" lon="6.2522">
        <ele>606</ele>
        <time>2014-05-08T09:30:20.000Z</time>
      </trkpt>
      <trkpt lat="47.30238" lon="6.25204">
        <ele>606</ele>
        <time>2014-05-08T09:30:24.000Z</time>
      </trkpt>
      <trkpt lat="47.30226" lon="6.25188">
        <ele>605</ele>
        <time>2014-05-08T09:30:28.000Z</time>
      </trkpt>
      <trkpt lat="47.30212" lon="6.25169">
        <ele>604</ele>
        <time>2014-05-08T09:30:32.000Z</time>
      </trkpt>
      <trkpt lat="47.30205" lon="6.25159">
        <ele>603</ele>
        <time>2014-05-08T09:30:34.000Z</time>
      </trkpt>
      <trkpt lat="47.30198" lon="6.25147">
        <ele>603</ele>
        <time>2014-05-08T09:30:36.000Z</time>
      </trkpt>
      <trkpt lat="47.3019" lon="6.25133">
        <ele>601</ele>
        <time>2014-05-08T09:30:38.000Z</time>
      </trkpt>
      <trkpt lat="47.30183" lon="6.25118">
        <ele>600</ele>
        <time>2014-05-08T09:30:40.000Z</time>
      </trkpt>
      <trkpt lat="47.30176" lon="6.25103">
        <ele>600</ele>
        <time>2014-05-08T09:30:42.000Z</time>
      </trkpt>
      <trkpt lat="47.3017" lon="6.25089">
        <ele>600</ele>
        <time>2014-05-08T09:30:44.000Z</time>
      </trkpt>
      <trkpt lat="47.30164" lon="6.25072">
        <ele>599</ele>
        <time>2014-05-08T09:30:46.000Z</time>
      </trkpt>
      <trkpt lat="47.30157" lon="6.25056">
        <ele>599</ele>
        <time>2014-05-08T09:30:48.000Z</time>
      </trkpt>
      <trkpt lat="47.30151" lon="6.25043">
        <ele>597</ele>
        <time>2014-05-08T09:30:50.000Z</time>
      </trkpt>
      <trkpt lat="47.30145" lon="6.25033">
        <ele>597</ele>
        <time>2014-05-08T09:30:52.000Z</time>
      </trkpt>
      <trkpt lat="47.30145" lon="6.25033">
        <ele>597</ele>
        <time>2014-05-08T09:30:54.000Z</time>
      </trkpt>
      <trkpt lat="47.30145" lon="6.25033">
        <ele>597</ele>
        <time>2014-05-08T09:30:56.000Z</time>
      </trkpt>
      <trkpt lat="47.30145" lon="6.25033">
        <ele>597</ele>
        <time>2014-05-08T09:30:58.000Z</time>
      </trkpt>
      <trkpt lat="47.30145" lon="6.25033">
        <ele>597</ele>
        <time>2014-05-08T09:31:00.000Z</time>
      </trkpt>
      <trkpt lat="47.30145" lon="6.25033">
        <ele>597</ele>
        <time>2014-05-08T09:31:02.000Z</time>
      </trkpt>
      <trkpt lat="47.30145" lon="6.25033">
        <ele>597</ele>
        <time>2014-05-08T09:31:04.000Z</time>
      </trkpt>
      <trkpt lat="47.30145" lon="6.25033">
        <ele>597</ele>
        <time>2014-05-08T09:31:06.000Z</time>
      </trkpt>
      <trkpt lat="47.30145" lon="6.25033">
        <ele>597</ele>
        <time>2014-05-08T09:31:09.000Z</time>
      </trkpt>
      <trkpt lat="47.30145" lon="6.25033">
        <ele>597</ele>
        <time>2014-05-08T09:31:10.000Z</time>
      </trkpt>
      <trkpt lat="47.30145" lon="6.25033">
        <ele>597</ele>
        <time>2014-05-08T09:31:12.000Z</time>
      </trkpt>
      <trkpt lat="47.30145" lon="6.25033">
        <ele>597</ele>
        <time>2014-05-08T09:31:14.000Z</time>
      </trkpt>
      <trkpt lat="47.30145" lon="6.25033">
        <ele>597</ele>
        <time>2014-05-08T09:31:16.000Z</time>
      </trkpt>
      <trkpt lat="47.30145" lon="6.25033">
        <ele>597</ele>
        <time>2014-05-08T09:31:18.000Z</time>
      </trkpt>
      <trkpt lat="47.30121" lon="6.25007">
        <ele>598</ele>
        <time>2014-05-08T09:32:10.000Z</time>
      </trkpt>
      <trkpt lat="47.30105" lon="6.24991">
        <ele>596</ele>
        <time>2014-05-08T09:32:12.000Z</time>
      </trkpt>
      <trkpt lat="47.30093" lon="6.24979">
        <ele>597</ele>
        <time>2014-05-08T09:32:14.000Z</time>
      </trkpt>
      <trkpt lat="47.30083" lon="6.2497">
        <ele>596</ele>
        <time>2014-05-08T09:32:16.000Z</time>
      </trkpt>
      <trkpt lat="47.30075" lon="6.24964">
        <ele>595</ele>
        <time>2014-05-08T09:32:18.000Z</time>
      </trkpt>
      <trkpt lat="47.30075" lon="6.24964">
        <ele>595</ele>
        <time>2014-05-08T09:32:20.000Z</time>
      </trkpt>
      <trkpt lat="47.30075" lon="6.24964">
        <ele>595</ele>
        <time>2014-05-08T09:32:22.000Z</time>
      </trkpt>
      <trkpt lat="47.30075" lon="6.24964">
        <ele>595</ele>
        <time>2014-05-08T09:32:24.000Z</time>
      </trkpt>
      <trkpt lat="47.30072" lon="6.24918">
        <ele>593</ele>
        <time>2014-05-08T09:32:30.000Z</time>
      </trkpt>
      <trkpt lat="47.30072" lon="6.24918">
        <ele>593</ele>
        <time>2014-05-08T09:32:33.000Z</time>
      </trkpt>
      <trkpt lat="47.30077" lon="6.24903">
        <ele>593</ele>
        <time>2014-05-08T09:32:34.000Z</time>
      </trkpt>
      <trkpt lat="47.30077" lon="6.24903">
        <ele>593</ele>
        <time>2014-05-08T09:32:36.000Z</time>
      </trkpt>
      <trkpt lat="47.30077" lon="6.24903">
        <ele>593</ele>
        <time>2014-05-08T09:32:39.000Z</time>
      </trkpt>
      <trkpt lat="47.30077" lon="6.24903">
        <ele>593</ele>
        <time>2014-05-08T09:32:40.000Z</time>
      </trkpt>
      <trkpt lat="47.30077" lon="6.24903">
        <ele>593</ele>
        <time>2014-05-08T09:32:42.000Z</time>
      </trkpt>
      <trkpt lat="47.30077" lon="6.24903">
        <ele>593</ele>
        <time>2014-05-08T09:32:45.000Z</time>
      </trkpt>
      <trkpt lat="47.30077" lon="6.24903">
        <ele>593</ele>
        <time>2014-05-08T09:32:46.000Z</time>
      </trkpt>
      <trkpt lat="47.30077" lon="6.24903">
        <ele>593</ele>
        <time>2014-05-08T09:32:48.000Z</time>
      </trkpt>
      <trkpt lat="47.30077" lon="6.24903">
        <ele>593</ele>
        <time>2014-05-08T09:32:50.000Z</time>
      </trkpt>
      <trkpt lat="47.30077" lon="6.24903">
        <ele>593</ele>
        <time>2014-05-08T09:32:52.000Z</time>
      </trkpt>
      <trkpt lat="47.30077" lon="6.24903">
        <ele>593</ele>
        <time>2014-05-08T09:32:54.000Z</time>
      </trkpt>
      <trkpt lat="47.30077" lon="6.24903">
        <ele>593</ele>
        <time>2014-05-08T09:32:56.000Z</time>
      </trkpt>
      <trkpt lat="47.30077" lon="6.24903">
        <ele>593</ele>
        <time>2014-05-08T09:32:58.000Z</time>
      </trkpt>
      <trkpt lat="47.30077" lon="6.24903">
        <ele>593</ele>
        <time>2014-05-08T09:33:00.000Z</time>
      </trkpt>
      <trkpt lat="47.30077" lon="6.24903">
        <ele>593</ele>
        <time>2014-05-08T09:33:02.000Z</time>
      </trkpt>
      <trkpt lat="47.30077" lon="6.24903">
        <ele>593</ele>
        <time>2014-05-08T09:33:04.000Z</time>
      </trkpt>
      <trkpt lat="47.30077" lon="6.24903">
        <ele>593</ele>
        <time>2014-05-08T09:33:06.000Z</time>
      </trkpt>
      <trkpt lat="47.30077" lon="6.24903">
        <ele>593</ele>
        <time>2014-05-08T09:33:08.000Z</time>
      </trkpt>
      <trkpt lat="47.30077" lon="6.24903">
        <ele>593</ele>
        <time>2014-05-08T09:33:11.000Z</time>
      </trkpt>
      <trkpt lat="47.30077" lon="6.24903">
        <ele>593</ele>
        <time>2014-05-08T09:33:12.000Z</time>
      </trkpt>
      <trkpt lat="47.30077" lon="6.24903">
        <ele>593</ele>
        <time>2014-05-08T09:33:19.000Z</time>
      </trkpt>
      <trkpt lat="47.30077" lon="6.24903">
        <ele>593</ele>
        <time>2014-05-08T09:33:20.000Z</time>
      </trkpt>
      <trkpt lat="47.30077" lon="6.24903">
        <ele>593</ele>
        <time>2014-05-08T09:33:22.000Z</time>
      </trkpt>
      <trkpt lat="47.30077" lon="6.24903">
        <ele>593</ele>
        <time>2014-05-08T09:33:24.000Z</time>
      </trkpt>
      <trkpt lat="47.30077" lon="6.24903">
        <ele>593</ele>
        <time>2014-05-08T09:33:27.000Z</time>
      </trkpt>
      <trkpt lat="47.30077" lon="6.24903">
        <ele>593</ele>
        <time>2014-05-08T09:33:28.000Z</time>
      </trkpt>
      <trkpt lat="47.30077" lon="6.24903">
        <ele>593</ele>
        <time>2014-05-08T09:33:30.000Z</time>
      </trkpt>
      <trkpt lat="47.30077" lon="6.24903">
        <ele>593</ele>
        <time>2014-05-08T09:33:32.000Z</time>
      </trkpt>
      <trkpt lat="47.30048" lon="6.24793">
        <ele>601</ele>
        <time>2014-05-08T09:33:34.000Z</time>
      </trkpt>
      <trkpt lat="47.30031" lon="6.24736">
        <ele>600</ele>
        <time>2014-05-08T09:33:36.000Z</time>
      </trkpt>
      <trkpt lat="47.30019" lon="6.24706">
        <ele>598</ele>
        <time>2014-05-08T09:33:38.000Z</time>
      </trkpt>
      <trkpt lat="47.3001" lon="6.24689">
        <ele>597</ele>
        <time>2014-05-08T09:33:41.000Z</time>
      </trkpt>
      <trkpt lat="47.29992" lon="6.24675">
        <ele>593</ele>
        <time>2014-05-08T09:33:45.000Z</time>
      </trkpt>
      <trkpt lat="47.29962" lon="6.24658">
        <ele>592</ele>
        <time>2014-05-08T09:33:46.000Z</time>
      </trkpt>
      <trkpt lat="47.29949" lon="6.24654">
        <ele>590</ele>
        <time>2014-05-08T09:33:48.000Z</time>
      </trkpt>
      <trkpt lat="47.29932" lon="6.24649">
        <ele>589</ele>
        <time>2014-05-08T09:33:50.000Z</time>
      </trkpt>
      <trkpt lat="47.29917" lon="6.2464">
        <ele>588</ele>
        <time>2014-05-08T09:33:52.000Z</time>
      </trkpt>
      <trkpt lat="47.29902" lon="6.24628">
        <ele>587</ele>
        <time>2014-05-08T09:33:54.000Z</time>
      </trkpt>
      <trkpt lat="47.29887" lon="6.24614">
        <ele>588</ele>
        <time>2014-05-08T09:33:56.000Z</time>
      </trkpt>
      <trkpt lat="47.29876" lon="6.24596">
        <ele>586</ele>
        <time>2014-05-08T09:33:58.000Z</time>
      </trkpt>
      <trkpt lat="47.29865" lon="6.24578">
        <ele>586</ele>
        <time>2014-05-08T09:34:00.000Z</time>
      </trkpt>
      <trkpt lat="47.2985" lon="6.24566">
        <ele>582</ele>
        <time>2014-05-08T09:34:02.000Z</time>
      </trkpt>
      <trkpt lat="47.29837" lon="6.24556">
        <ele>581</ele>
        <time>2014-05-08T09:34:04.000Z</time>
      </trkpt>
      <trkpt lat="47.29824" lon="6.24545">
        <ele>578</ele>
        <time>2014-05-08T09:34:06.000Z</time>
      </trkpt>
      <trkpt lat="47.2981" lon="6.24529">
        <ele>575</ele>
        <time>2014-05-08T09:34:08.000Z</time>
      </trkpt>
      <trkpt lat="47.29798" lon="6.24515">
        <ele>576</ele>
        <time>2014-05-08T09:34:10.000Z</time>
      </trkpt>
      <trkpt lat="47.29783" lon="6.24506">
        <ele>575</ele>
        <time>2014-05-08T09:34:12.000Z</time>
      </trkpt>
      <trkpt lat="47.2977" lon="6.24499">
        <ele>575</ele>
        <time>2014-05-08T09:34:15.000Z</time>
      </trkpt>
      <trkpt lat="47.29756" lon="6.24491">
        <ele>578</ele>
        <time>2014-05-08T09:34:17.000Z</time>
      </trkpt>
      <trkpt lat="47.29741" lon="6.24486">
        <ele>584</ele>
        <time>2014-05-08T09:34:19.000Z</time>
      </trkpt>
      <trkpt lat="47.29741" lon="6.24486">
        <ele>584</ele>
        <time>2014-05-08T09:34:24.000Z</time>
      </trkpt>
      <trkpt lat="47.297" lon="6.24424">
        <ele>586</ele>
        <time>2014-05-08T09:34:30.000Z</time>
      </trkpt>
      <trkpt lat="47.29692" lon="6.24417">
        <ele>585</ele>
        <time>2014-05-08T09:34:32.000Z</time>
      </trkpt>
      <trkpt lat="47.29682" lon="6.24409">
        <ele>584</ele>
        <time>2014-05-08T09:34:34.000Z</time>
      </trkpt>
      <trkpt lat="47.29682" lon="6.24409">
        <ele>584</ele>
        <time>2014-05-08T09:34:36.000Z</time>
      </trkpt>
      <trkpt lat="47.29682" lon="6.24409">
        <ele>584</ele>
        <time>2014-05-08T09:34:38.000Z</time>
      </trkpt>
      <trkpt lat="47.29682" lon="6.24409">
        <ele>584</ele>
        <time>2014-05-08T09:34:40.000Z</time>
      </trkpt>
      <trkpt lat="47.29633" lon="6.24354">
        <ele>572</ele>
        <time>2014-05-08T09:34:47.000Z</time>
      </trkpt>
      <trkpt lat="47.29623" lon="6.24342">
        <ele>563</ele>
        <time>2014-05-08T09:34:48.000Z</time>
      </trkpt>
      <trkpt lat="47.29615" lon="6.24329">
        <ele>546</ele>
        <time>2014-05-08T09:34:50.000Z</time>
      </trkpt>
      <trkpt lat="47.29606" lon="6.24316">
        <ele>536</ele>
        <time>2014-05-08T09:34:53.000Z</time>
      </trkpt>
      <trkpt lat="47.29597" lon="6.24302">
        <ele>533</ele>
        <time>2014-05-08T09:34:55.000Z</time>
      </trkpt>
      <trkpt lat="47.29586" lon="6.24288">
        <ele>531</ele>
        <time>2014-05-08T09:34:56.000Z</time>
      </trkpt>
      <trkpt lat="47.29575" lon="6.24275">
        <ele>531</ele>
        <time>2014-05-08T09:34:59.000Z</time>
      </trkpt>
      <trkpt lat="47.29566" lon="6.24266">
        <ele>530</ele>
        <time>2014-05-08T09:35:01.000Z</time>
      </trkpt>
      <trkpt lat="47.29556" lon="6.24257">
        <ele>529</ele>
        <time>2014-05-08T09:35:02.000Z</time>
      </trkpt>
      <trkpt lat="47.29544" lon="6.24252">
        <ele>527</ele>
        <time>2014-05-08T09:35:04.000Z</time>
      </trkpt>
      <trkpt lat="47.29544" lon="6.24252">
        <ele>527</ele>
        <time>2014-05-08T09:35:07.000Z</time>
      </trkpt>
      <trkpt lat="47.29544" lon="6.24252">
        <ele>527</ele>
        <time>2014-05-08T09:35:09.000Z</time>
      </trkpt>
      <trkpt lat="47.29544" lon="6.24252">
        <ele>527</ele>
        <time>2014-05-08T09:35:11.000Z</time>
      </trkpt>
      <trkpt lat="47.29544" lon="6.24252">
        <ele>527</ele>
        <time>2014-05-08T09:35:13.000Z</time>
      </trkpt>
      <trkpt lat="47.29544" lon="6.24252">
        <ele>527</ele>
        <time>2014-05-08T09:35:14.000Z</time>
      </trkpt>
      <trkpt lat="47.29507" lon="6.24234">
        <ele>527</ele>
        <time>2014-05-08T09:35:23.000Z</time>
      </trkpt>
      <trkpt lat="47.29497" lon="6.24229">
        <ele>525</ele>
        <time>2014-05-08T09:35:27.000Z</time>
      </trkpt>
      <trkpt lat="47.29481" lon="6.24222">
        <ele>523</ele>
        <time>2014-05-08T09:35:30.000Z</time>
      </trkpt>
      <trkpt lat="47.29459" lon="6.24212">
        <ele>525</ele>
        <time>2014-05-08T09:35:34.000Z</time>
      </trkpt>
      <trkpt lat="47.29446" lon="6.24209">
        <ele>526</ele>
        <time>2014-05-08T09:35:35.000Z</time>
      </trkpt>
      <trkpt lat="47.29433" lon="6.24203">
        <ele>526</ele>
        <time>2014-05-08T09:35:37.000Z</time>
      </trkpt>
      <trkpt lat="47.29419" lon="6.24195">
        <ele>525</ele>
        <time>2014-05-08T09:35:39.000Z</time>
      </trkpt>
      <trkpt lat="47.29403" lon="6.24187">
        <ele>524</ele>
        <time>2014-05-08T09:35:41.000Z</time>
      </trkpt>
      <trkpt lat="47.29384" lon="6.24181">
        <ele>520</ele>
        <time>2014-05-08T09:35:43.000Z</time>
      </trkpt>
      <trkpt lat="47.29364" lon="6.24173">
        <ele>517</ele>
        <time>2014-05-08T09:35:45.000Z</time>
      </trkpt>
      <trkpt lat="47.29344" lon="6.24161">
        <ele>515</ele>
        <time>2014-05-08T09:35:48.000Z</time>
      </trkpt>
      <trkpt lat="47.29306" lon="6.24146">
        <ele>508</ele>
        <time>2014-05-08T09:35:50.000Z</time>
      </trkpt>
      <trkpt lat="47.29281" lon="6.24136">
        <ele>504</ele>
        <time>2014-05-08T09:35:53.000Z</time>
      </trkpt>
      <trkpt lat="47.29255" lon="6.24126">
        <ele>498</ele>
        <time>2014-05-08T09:35:54.000Z</time>
      </trkpt>
      <trkpt lat="47.2923" lon="6.24113">
        <ele>492</ele>
        <time>2014-05-08T09:35:57.000Z</time>
      </trkpt>
      <trkpt lat="47.29206" lon="6.24098">
        <ele>485</ele>
        <time>2014-05-08T09:35:58.000Z</time>
      </trkpt>
      <trkpt lat="47.29181" lon="6.24083">
        <ele>481</ele>
        <time>2014-05-08T09:36:00.000Z</time>
      </trkpt>
      <trkpt lat="47.2916" lon="6.24061">
        <ele>478</ele>
        <time>2014-05-08T09:36:03.000Z</time>
      </trkpt>
      <trkpt lat="47.29144" lon="6.24039">
        <ele>475</ele>
        <time>2014-05-08T09:36:04.000Z</time>
      </trkpt>
      <trkpt lat="47.29119" lon="6.24058">
        <ele>470</ele>
        <time>2014-05-08T09:36:10.000Z</time>
      </trkpt>
      <trkpt lat="47.29103" lon="6.24108">
        <ele>463</ele>
        <time>2014-05-08T09:36:14.000Z</time>
      </trkpt>
      <trkpt lat="47.29092" lon="6.24135">
        <ele>461</ele>
        <time>2014-05-08T09:36:16.000Z</time>
      </trkpt>
      <trkpt lat="47.29079" lon="6.24164">
        <ele>457</ele>
        <time>2014-05-08T09:36:18.000Z</time>
      </trkpt>
      <trkpt lat="47.29065" lon="6.24194">
        <ele>453</ele>
        <time>2014-05-08T09:36:20.000Z</time>
      </trkpt>
      <trkpt lat="47.29049" lon="6.24226">
        <ele>450</ele>
        <time>2014-05-08T09:36:22.000Z</time>
      </trkpt>
      <trkpt lat="47.29032" lon="6.24257">
        <ele>447</ele>
        <time>2014-05-08T09:36:24.000Z</time>
      </trkpt>
      <trkpt lat="47.29018" lon="6.24284">
        <ele>447</ele>
        <time>2014-05-08T09:36:26.000Z</time>
      </trkpt>
      <trkpt lat="47.29005" lon="6.24313">
        <ele>445</ele>
        <time>2014-05-08T09:36:29.000Z</time>
      </trkpt>
      <trkpt lat="47.29007" lon="6.24336">
        <ele>446</ele>
        <time>2014-05-08T09:36:32.000Z</time>
      </trkpt>
      <trkpt lat="47.29013" lon="6.24351">
        <ele>445</ele>
        <time>2014-05-08T09:36:34.000Z</time>
      </trkpt>
      <trkpt lat="47.29019" lon="6.24365">
        <ele>444</ele>
        <time>2014-05-08T09:36:36.000Z</time>
      </trkpt>
      <trkpt lat="47.29025" lon="6.2438">
        <ele>445</ele>
        <time>2014-05-08T09:36:38.000Z</time>
      </trkpt>
      <trkpt lat="47.29029" lon="6.24395">
        <ele>445</ele>
        <time>2014-05-08T09:36:40.000Z</time>
      </trkpt>
      <trkpt lat="47.29032" lon="6.24411">
        <ele>443</ele>
        <time>2014-05-08T09:36:42.000Z</time>
      </trkpt>
      <trkpt lat="47.29031" lon="6.24427">
        <ele>442</ele>
        <time>2014-05-08T09:36:44.000Z</time>
      </trkpt>
      <trkpt lat="47.29026" lon="6.24444">
        <ele>441</ele>
        <time>2014-05-08T09:36:46.000Z</time>
      </trkpt>
      <trkpt lat="47.2902" lon="6.24457">
        <ele>440</ele>
        <time>2014-05-08T09:36:48.000Z</time>
      </trkpt>
      <trkpt lat="47.29013" lon="6.24467">
        <ele>440</ele>
        <time>2014-05-08T09:36:50.000Z</time>
      </trkpt>
      <trkpt lat="47.29013" lon="6.24467">
        <ele>440</ele>
        <time>2014-05-08T09:36:52.000Z</time>
      </trkpt>
      <trkpt lat="47.29013" lon="6.24467">
        <ele>440</ele>
        <time>2014-05-08T09:36:54.000Z</time>
      </trkpt>
      <trkpt lat="47.29013" lon="6.24467">
        <ele>440</ele>
        <time>2014-05-08T09:36:56.000Z</time>
      </trkpt>
      <trkpt lat="47.29013" lon="6.24467">
        <ele>440</ele>
        <time>2014-05-08T09:36:58.000Z</time>
      </trkpt>
      <trkpt lat="47.29013" lon="6.24467">
        <ele>440</ele>
        <time>2014-05-08T09:37:00.000Z</time>
      </trkpt>
      <trkpt lat="47.29013" lon="6.24467">
        <ele>440</ele>
        <time>2014-05-08T09:37:02.000Z</time>
      </trkpt>
      <trkpt lat="47.29013" lon="6.24467">
        <ele>440</ele>
        <time>2014-05-08T09:37:04.000Z</time>
      </trkpt>
      <trkpt lat="47.29013" lon="6.24467">
        <ele>440</ele>
        <time>2014-05-08T09:37:06.000Z</time>
      </trkpt>
      <trkpt lat="47.29013" lon="6.24467">
        <ele>440</ele>
        <time>2014-05-08T09:37:08.000Z</time>
      </trkpt>
      <trkpt lat="47.29013" lon="6.24467">
        <ele>440</ele>
        <time>2014-05-08T09:37:10.000Z</time>
      </trkpt>
      <trkpt lat="47.29013" lon="6.24467">
        <ele>440</ele>
        <time>2014-05-08T09:37:12.000Z</time>
      </trkpt>
      <trkpt lat="47.29013" lon="6.24467">
        <ele>440</ele>
        <time>2014-05-08T09:37:14.000Z</time>
      </trkpt>
      <trkpt lat="47.28957" lon="6.24525">
        <ele>442</ele>
        <time>2014-05-08T09:37:21.000Z</time>
      </trkpt>
      <trkpt lat="47.28926" lon="6.24558">
        <ele>443</ele>
        <time>2014-05-08T09:37:22.000Z</time>
      </trkpt>
      <trkpt lat="47.28926" lon="6.24558">
        <ele>443</ele>
        <time>2014-05-08T09:37:24.000Z</time>
      </trkpt>
      <trkpt lat="47.28926" lon="6.24558">
        <ele>443</ele>
        <time>2014-05-08T09:37:26.000Z</time>
      </trkpt>
      <trkpt lat="47.28926" lon="6.24558">
        <ele>443</ele>
        <time>2014-05-08T09:37:28.000Z</time>
      </trkpt>
      <trkpt lat="47.28926" lon="6.24558">
        <ele>443</ele>
        <time>2014-05-08T09:37:30.000Z</time>
      </trkpt>
      <trkpt lat="47.28926" lon="6.24558">
        <ele>443</ele>
        <time>2014-05-08T09:37:32.000Z</time>
      </trkpt>
      <trkpt lat="47.2889" lon="6.24568">
        <ele>440</ele>
        <time>2014-05-08T09:37:36.000Z</time>
      </trkpt>
      <trkpt lat="47.28868" lon="6.24568">
        <ele>441</ele>
        <time>2014-05-08T09:37:38.000Z</time>
      </trkpt>
      <trkpt lat="47.28854" lon="6.24563">
        <ele>441</ele>
        <time>2014-05-08T09:37:40.000Z</time>
      </trkpt>
      <trkpt lat="47.28844" lon="6.24555">
        <ele>441</ele>
        <time>2014-05-08T09:37:42.000Z</time>
      </trkpt>
      <trkpt lat="47.28836" lon="6.24546">
        <ele>442</ele>
        <time>2014-05-08T09:37:44.000Z</time>
      </trkpt>
      <trkpt lat="47.28822" lon="6.24527">
        <ele>444</ele>
        <time>2014-05-08T09:37:46.000Z</time>
      </trkpt>
      <trkpt lat="47.28815" lon="6.24518">
        <ele>443</ele>
        <time>2014-05-08T09:37:48.000Z</time>
      </trkpt>
      <trkpt lat="47.28815" lon="6.24518">
        <ele>443</ele>
        <time>2014-05-08T09:37:50.000Z</time>
      </trkpt>
      <trkpt lat="47.28815" lon="6.24518">
        <ele>443</ele>
        <time>2014-05-08T09:37:52.000Z</time>
      </trkpt>
      <trkpt lat="47.28792" lon="6.24476">
        <ele>442</ele>
        <time>2014-05-08T09:37:57.000Z</time>
      </trkpt>
      <trkpt lat="47.28781" lon="6.24454">
        <ele>442</ele>
        <time>2014-05-08T09:38:00.000Z</time>
      </trkpt>
      <trkpt lat="47.28777" lon="6.2444">
        <ele>443</ele>
        <time>2014-05-08T09:38:02.000Z</time>
      </trkpt>
      <trkpt lat="47.28773" lon="6.24426">
        <ele>441</ele>
        <time>2014-05-08T09:38:04.000Z</time>
      </trkpt>
      <trkpt lat="47.28771" lon="6.24412">
        <ele>441</ele>
        <time>2014-05-08T09:38:06.000Z</time>
      </trkpt>
      <trkpt lat="47.28768" lon="6.24399">
        <ele>441</ele>
        <time>2014-05-08T09:38:08.000Z</time>
      </trkpt>
      <trkpt lat="47.28765" lon="6.24385">
        <ele>441</ele>
        <time>2014-05-08T09:38:10.000Z</time>
      </trkpt>
      <trkpt lat="47.28762" lon="6.24358">
        <ele>443</ele>
        <time>2014-05-08T09:38:15.000Z</time>
      </trkpt>
      <trkpt lat="47.28759" lon="6.24343">
        <ele>442</ele>
        <time>2014-05-08T09:38:16.000Z</time>
      </trkpt>
      <trkpt lat="47.28755" lon="6.24329">
        <ele>443</ele>
        <time>2014-05-08T09:38:18.000Z</time>
      </trkpt>
      <trkpt lat="47.28751" lon="6.24314">
        <ele>442</ele>
        <time>2014-05-08T09:38:20.000Z</time>
      </trkpt>
      <trkpt lat="47.28747" lon="6.24301">
        <ele>441</ele>
        <time>2014-05-08T09:38:22.000Z</time>
      </trkpt>
      <trkpt lat="47.28741" lon="6.24288">
        <ele>441</ele>
        <time>2014-05-08T09:38:24.000Z</time>
      </trkpt>
      <trkpt lat="47.28741" lon="6.24288">
        <ele>441</ele>
        <time>2014-05-08T09:38:26.000Z</time>
      </trkpt>
      <trkpt lat="47.28741" lon="6.24288">
        <ele>441</ele>
        <time>2014-05-08T09:38:28.000Z</time>
      </trkpt>
      <trkpt lat="47.28741" lon="6.24288">
        <ele>441</ele>
        <time>2014-05-08T09:38:30.000Z</time>
      </trkpt>
      <trkpt lat="47.28741" lon="6.24288">
        <ele>441</ele>
        <time>2014-05-08T09:38:32.000Z</time>
      </trkpt>
      <trkpt lat="47.28741" lon="6.24288">
        <ele>441</ele>
        <time>2014-05-08T09:38:34.000Z</time>
      </trkpt>
      <trkpt lat="47.28741" lon="6.24288">
        <ele>441</ele>
        <time>2014-05-08T09:38:36.000Z</time>
      </trkpt>
      <trkpt lat="47.28741" lon="6.24288">
        <ele>441</ele>
        <time>2014-05-08T09:38:38.000Z</time>
      </trkpt>
      <trkpt lat="47.28741" lon="6.24288">
        <ele>441</ele>
        <time>2014-05-08T09:38:40.000Z</time>
      </trkpt>
      <trkpt lat="47.28741" lon="6.24288">
        <ele>441</ele>
        <time>2014-05-08T09:38:42.000Z</time>
      </trkpt>
      <trkpt lat="47.28741" lon="6.24288">
        <ele>441</ele>
        <time>2014-05-08T09:38:44.000Z</time>
      </trkpt>
      <trkpt lat="47.28741" lon="6.24288">
        <ele>441</ele>
        <time>2014-05-08T09:38:46.000Z</time>
      </trkpt>
      <trkpt lat="47.28741" lon="6.24288">
        <ele>441</ele>
        <time>2014-05-08T09:38:48.000Z</time>
      </trkpt>
      <trkpt lat="47.28638" lon="6.24196">
        <ele>441</ele>
        <time>2014-05-08T09:38:54.000Z</time>
      </trkpt>
      <trkpt lat="47.28628" lon="6.24193">
        <ele>441</ele>
        <time>2014-05-08T09:38:56.000Z</time>
      </trkpt>
      <trkpt lat="47.28618" lon="6.24188">
        <ele>441</ele>
        <time>2014-05-08T09:38:58.000Z</time>
      </trkpt>
      <trkpt lat="47.28608" lon="6.24182">
        <ele>439</ele>
        <time>2014-05-08T09:39:00.000Z</time>
      </trkpt>
      <trkpt lat="47.28608" lon="6.24182">
        <ele>439</ele>
        <time>2014-05-08T09:39:02.000Z</time>
      </trkpt>
      <trkpt lat="47.28608" lon="6.24182">
        <ele>439</ele>
        <time>2014-05-08T09:39:05.000Z</time>
      </trkpt>
      <trkpt lat="47.28608" lon="6.24182">
        <ele>439</ele>
        <time>2014-05-08T09:39:06.000Z</time>
      </trkpt>
      <trkpt lat="47.28608" lon="6.24182">
        <ele>439</ele>
        <time>2014-05-08T09:39:08.000Z</time>
      </trkpt>
      <trkpt lat="47.28608" lon="6.24182">
        <ele>439</ele>
        <time>2014-05-08T09:39:10.000Z</time>
      </trkpt>
      <trkpt lat="47.28608" lon="6.24182">
        <ele>439</ele>
        <time>2014-05-08T09:39:12.000Z</time>
      </trkpt>
      <trkpt lat="47.28608" lon="6.24182">
        <ele>439</ele>
        <time>2014-05-08T09:39:14.000Z</time>
      </trkpt>
      <trkpt lat="47.28608" lon="6.24182">
        <ele>439</ele>
        <time>2014-05-08T09:39:16.000Z</time>
      </trkpt>
      <trkpt lat="47.28593" lon="6.24169">
        <ele>439</ele>
        <time>2014-05-08T09:39:20.000Z</time>
      </trkpt>
      <trkpt lat="47.28606" lon="6.24185">
        <ele>439</ele>
        <time>2014-05-08T09:39:24.000Z</time>
      </trkpt>
      <trkpt lat="47.28613" lon="6.24189">
        <ele>439</ele>
        <time>2014-05-08T09:39:28.000Z</time>
      </trkpt>
      <trkpt lat="47.28621" lon="6.24193">
        <ele>439</ele>
        <time>2014-05-08T09:39:30.000Z</time>
      </trkpt>
      <trkpt lat="47.28629" lon="6.24195">
        <ele>439</ele>
        <time>2014-05-08T09:39:32.000Z</time>
      </trkpt>
      <trkpt lat="47.28638" lon="6.24198">
        <ele>439</ele>
        <time>2014-05-08T09:39:34.000Z</time>
      </trkpt>
      <trkpt lat="47.28648" lon="6.24201">
        <ele>440</ele>
        <time>2014-05-08T09:39:36.000Z</time>
      </trkpt>
      <trkpt lat="47.28667" lon="6.24206">
        <ele>440</ele>
        <time>2014-05-08T09:39:38.000Z</time>
      </trkpt>
      <trkpt lat="47.28677" lon="6.24214">
        <ele>441</ele>
        <time>2014-05-08T09:39:40.000Z</time>
      </trkpt>
      <trkpt lat="47.28677" lon="6.24214">
        <ele>441</ele>
        <time>2014-05-08T09:39:42.000Z</time>
      </trkpt>
      <trkpt lat="47.28691" lon="6.24224">
        <ele>443</ele>
        <time>2014-05-08T09:39:44.000Z</time>
      </trkpt>
      <trkpt lat="47.28691" lon="6.24224">
        <ele>443</ele>
        <time>2014-05-08T09:39:47.000Z</time>
      </trkpt>
      <trkpt lat="47.28691" lon="6.24224">
        <ele>443</ele>
        <time>2014-05-08T09:39:48.000Z</time>
      </trkpt>
      <trkpt lat="47.28691" lon="6.24224">
        <ele>443</ele>
        <time>2014-05-08T09:39:50.000Z</time>
      </trkpt>
      <trkpt lat="47.28691" lon="6.24224">
        <ele>443</ele>
        <time>2014-05-08T09:39:53.000Z</time>
      </trkpt>
      <trkpt lat="47.28691" lon="6.24224">
        <ele>443</ele>
        <time>2014-05-08T09:39:54.000Z</time>
      </trkpt>
      <trkpt lat="47.28691" lon="6.24224">
        <ele>443</ele>
        <time>2014-05-08T09:39:56.000Z</time>
      </trkpt>
      <trkpt lat="47.28688" lon="6.24218">
        <ele>439</ele>
        <time>2014-05-08T09:41:02.000Z</time>
      </trkpt>
      <trkpt lat="47.28682" lon="6.24214">
        <ele>438</ele>
        <time>2014-05-08T09:41:06.000Z</time>
      </trkpt>
      <trkpt lat="47.28676" lon="6.24209">
        <ele>439</ele>
        <time>2014-05-08T09:41:08.000Z</time>
      </trkpt>
      <trkpt lat="47.28669" lon="6.24204">
        <ele>439</ele>
        <time>2014-05-08T09:41:10.000Z</time>
      </trkpt>
      <trkpt lat="47.28661" lon="6.24201">
        <ele>439</ele>
        <time>2014-05-08T09:41:12.000Z</time>
      </trkpt>
      <trkpt lat="47.28652" lon="6.24198">
        <ele>439</ele>
        <time>2014-05-08T09:41:14.000Z</time>
      </trkpt>
      <trkpt lat="47.28631" lon="6.24193">
        <ele>439</ele>
        <time>2014-05-08T09:41:16.000Z</time>
      </trkpt>
      <trkpt lat="47.28621" lon="6.24188">
        <ele>439</ele>
        <time>2014-05-08T09:41:18.000Z</time>
      </trkpt>
      <trkpt lat="47.28613" lon="6.24182">
        <ele>439</ele>
        <time>2014-05-08T09:41:20.000Z</time>
      </trkpt>
      <trkpt lat="47.28605" lon="6.24173">
        <ele>440</ele>
        <time>2014-05-08T09:41:22.000Z</time>
      </trkpt>
      <trkpt lat="47.28597" lon="6.24163">
        <ele>440</ele>
        <time>2014-05-08T09:41:24.000Z</time>
      </trkpt>
      <trkpt lat="47.2859" lon="6.24152">
        <ele>439</ele>
        <time>2014-05-08T09:41:26.000Z</time>
      </trkpt>
      <trkpt lat="47.2859" lon="6.24152">
        <ele>439</ele>
        <time>2014-05-08T09:41:28.000Z</time>
      </trkpt>
      <trkpt lat="47.28579" lon="6.24129">
        <ele>439</ele>
        <time>2014-05-08T09:41:30.000Z</time>
      </trkpt>
      <trkpt lat="47.28572" lon="6.24115">
        <ele>439</ele>
        <time>2014-05-08T09:41:32.000Z</time>
      </trkpt>
      <trkpt lat="47.28565" lon="6.24103">
        <ele>440</ele>
        <time>2014-05-08T09:41:34.000Z</time>
      </trkpt>
      <trkpt lat="47.28558" lon="6.2409">
        <ele>439</ele>
        <time>2014-05-08T09:41:36.000Z</time>
      </trkpt>
      <trkpt lat="47.28551" lon="6.24076">
        <ele>440</ele>
        <time>2014-05-08T09:41:38.000Z</time>
      </trkpt>
      <trkpt lat="47.28543" lon="6.24062">
        <ele>439</ele>
        <time>2014-05-08T09:41:40.000Z</time>
      </trkpt>
      <trkpt lat="47.28535" lon="6.24048">
        <ele>441</ele>
        <time>2014-05-08T09:41:42.000Z</time>
      </trkpt>
      <trkpt lat="47.28527" lon="6.24034">
        <ele>442</ele>
        <time>2014-05-08T09:41:44.000Z</time>
      </trkpt>
      <trkpt lat="47.28515" lon="6.24021">
        <ele>442</ele>
        <time>2014-05-08T09:41:46.000Z</time>
      </trkpt>
      <trkpt lat="47.28502" lon="6.24006">
        <ele>442</ele>
        <time>2014-05-08T09:41:48.000Z</time>
      </trkpt>
      <trkpt lat="47.28489" lon="6.23992">
        <ele>444</ele>
        <time>2014-05-08T09:41:50.000Z</time>
      </trkpt>
      <trkpt lat="47.28478" lon="6.2398">
        <ele>442</ele>
        <time>2014-05-08T09:41:52.000Z</time>
      </trkpt>
      <trkpt lat="47.28467" lon="6.23968">
        <ele>443</ele>
        <time>2014-05-08T09:41:54.000Z</time>
      </trkpt>
      <trkpt lat="47.28455" lon="6.23957">
        <ele>442</ele>
        <time>2014-05-08T09:41:56.000Z</time>
      </trkpt>
      <trkpt lat="47.28445" lon="6.23946">
        <ele>441</ele>
        <time>2014-05-08T09:41:58.000Z</time>
      </trkpt>
      <trkpt lat="47.28435" lon="6.23937">
        <ele>441</ele>
        <time>2014-05-08T09:42:00.000Z</time>
      </trkpt>
      <trkpt lat="47.28423" lon="6.2393">
        <ele>442</ele>
        <time>2014-05-08T09:42:02.000Z</time>
      </trkpt>
      <trkpt lat="47.28412" lon="6.23922">
        <ele>441</ele>
        <time>2014-05-08T09:42:04.000Z</time>
      </trkpt>
      <trkpt lat="47.28401" lon="6.23916">
        <ele>442</ele>
        <time>2014-05-08T09:42:06.000Z</time>
      </trkpt>
      <trkpt lat="47.28392" lon="6.2391">
        <ele>441</ele>
        <time>2014-05-08T09:42:09.000Z</time>
      </trkpt>
      <trkpt lat="47.28383" lon="6.23903">
        <ele>441</ele>
        <time>2014-05-08T09:42:10.000Z</time>
      </trkpt>
      <trkpt lat="47.28383" lon="6.23903">
        <ele>441</ele>
        <time>2014-05-08T09:42:12.000Z</time>
      </trkpt>
      <trkpt lat="47.28383" lon="6.23903">
        <ele>441</ele>
        <time>2014-05-08T09:42:14.000Z</time>
      </trkpt>
      <trkpt lat="47.28383" lon="6.23903">
        <ele>441</ele>
        <time>2014-05-08T09:42:16.000Z</time>
      </trkpt>
      <trkpt lat="47.28383" lon="6.23903">
        <ele>441</ele>
        <time>2014-05-08T09:42:18.000Z</time>
      </trkpt>
      <trkpt lat="47.28383" lon="6.23903">
        <ele>441</ele>
        <time>2014-05-08T09:42:20.000Z</time>
      </trkpt>
      <trkpt lat="47.28383" lon="6.23903">
        <ele>441</ele>
        <time>2014-05-08T09:42:23.000Z</time>
      </trkpt>
      <trkpt lat="47.28321" lon="6.23827">
        <ele>445</ele>
        <time>2014-05-08T09:42:26.000Z</time>
      </trkpt>
      <trkpt lat="47.28315" lon="6.2381">
        <ele>445</ele>
        <time>2014-05-08T09:42:28.000Z</time>
      </trkpt>
      <trkpt lat="47.28307" lon="6.23795">
        <ele>444</ele>
        <time>2014-05-08T09:42:30.000Z</time>
      </trkpt>
      <trkpt lat="47.283" lon="6.23782">
        <ele>444</ele>
        <time>2014-05-08T09:42:32.000Z</time>
      </trkpt>
      <trkpt lat="47.28292" lon="6.23768">
        <ele>444</ele>
        <time>2014-05-08T09:42:34.000Z</time>
      </trkpt>
      <trkpt lat="47.28284" lon="6.23758">
        <ele>444</ele>
        <time>2014-05-08T09:42:36.000Z</time>
      </trkpt>
      <trkpt lat="47.28274" lon="6.23749">
        <ele>444</ele>
        <time>2014-05-08T09:42:38.000Z</time>
      </trkpt>
      <trkpt lat="47.28263" lon="6.23742">
        <ele>445</ele>
        <time>2014-05-08T09:42:40.000Z</time>
      </trkpt>
      <trkpt lat="47.28251" lon="6.23738">
        <ele>444</ele>
        <time>2014-05-08T09:42:42.000Z</time>
      </trkpt>
      <trkpt lat="47.2824" lon="6.23735">
        <ele>446</ele>
        <time>2014-05-08T09:42:44.000Z</time>
      </trkpt>
      <trkpt lat="47.28229" lon="6.2373">
        <ele>446</ele>
        <time>2014-05-08T09:42:46.000Z</time>
      </trkpt>
      <trkpt lat="47.28221" lon="6.23725">
        <ele>447</ele>
        <time>2014-05-08T09:42:48.000Z</time>
      </trkpt>
      <trkpt lat="47.28213" lon="6.23714">
        <ele>447</ele>
        <time>2014-05-08T09:42:50.000Z</time>
      </trkpt>
      <trkpt lat="47.28213" lon="6.23714">
        <ele>447</ele>
        <time>2014-05-08T09:42:52.000Z</time>
      </trkpt>
      <trkpt lat="47.28213" lon="6.23714">
        <ele>447</ele>
        <time>2014-05-08T09:42:54.000Z</time>
      </trkpt>
      <trkpt lat="47.28213" lon="6.23714">
        <ele>447</ele>
        <time>2014-05-08T09:42:56.000Z</time>
      </trkpt>
      <trkpt lat="47.28213" lon="6.23714">
        <ele>447</ele>
        <time>2014-05-08T09:42:58.000Z</time>
      </trkpt>
      <trkpt lat="47.28213" lon="6.23714">
        <ele>447</ele>
        <time>2014-05-08T09:43:00.000Z</time>
      </trkpt>
      <trkpt lat="47.28213" lon="6.23714">
        <ele>447</ele>
        <time>2014-05-08T09:43:02.000Z</time>
      </trkpt>
      <trkpt lat="47.28157" lon="6.23622">
        <ele>449</ele>
        <time>2014-05-08T09:43:08.000Z</time>
      </trkpt>
      <trkpt lat="47.28151" lon="6.23608">
        <ele>449</ele>
        <time>2014-05-08T09:43:10.000Z</time>
      </trkpt>
      <trkpt lat="47.28144" lon="6.23594">
        <ele>449</ele>
        <time>2014-05-08T09:43:12.000Z</time>
      </trkpt>
      <trkpt lat="47.28138" lon="6.23581">
        <ele>448</ele>
        <time>2014-05-08T09:43:14.000Z</time>
      </trkpt>
      <trkpt lat="47.28131" lon="6.23566">
        <ele>449</ele>
        <time>2014-05-08T09:43:16.000Z</time>
      </trkpt>
      <trkpt lat="47.28126" lon="6.23552">
        <ele>450</ele>
        <time>2014-05-08T09:43:18.000Z</time>
      </trkpt>
      <trkpt lat="47.28117" lon="6.23536">
        <ele>450</ele>
        <time>2014-05-08T09:43:20.000Z</time>
      </trkpt>
      <trkpt lat="47.28107" lon="6.2352">
        <ele>449</ele>
        <time>2014-05-08T09:43:22.000Z</time>
      </trkpt>
      <trkpt lat="47.28097" lon="6.23504">
        <ele>449</ele>
        <time>2014-05-08T09:43:24.000Z</time>
      </trkpt>
      <trkpt lat="47.28087" lon="6.23487">
        <ele>448</ele>
        <time>2014-05-08T09:43:26.000Z</time>
      </trkpt>
      <trkpt lat="47.28077" lon="6.2347">
        <ele>450</ele>
        <time>2014-05-08T09:43:28.000Z</time>
      </trkpt>
      <trkpt lat="47.28066" lon="6.23454">
        <ele>449</ele>
        <time>2014-05-08T09:43:30.000Z</time>
      </trkpt>
      <trkpt lat="47.28057" lon="6.23435">
        <ele>448</ele>
        <time>2014-05-08T09:43:32.000Z</time>
      </trkpt>
      <trkpt lat="47.2805" lon="6.23416">
        <ele>447</ele>
        <time>2014-05-08T09:43:34.000Z</time>
      </trkpt>
      <trkpt lat="47.28045" lon="6.23397">
        <ele>447</ele>
        <time>2014-05-08T09:43:36.000Z</time>
      </trkpt>
      <trkpt lat="47.28042" lon="6.23378">
        <ele>448</ele>
        <time>2014-05-08T09:43:38.000Z</time>
      </trkpt>
      <trkpt lat="47.28038" lon="6.23361">
        <ele>448</ele>
        <time>2014-05-08T09:43:40.000Z</time>
      </trkpt>
      <trkpt lat="47.28034" lon="6.23345">
        <ele>449</ele>
        <time>2014-05-08T09:43:43.000Z</time>
      </trkpt>
      <trkpt lat="47.28033" lon="6.23328">
        <ele>450</ele>
        <time>2014-05-08T09:43:44.000Z</time>
      </trkpt>
      <trkpt lat="47.28032" lon="6.23312">
        <ele>451</ele>
        <time>2014-05-08T09:43:46.000Z</time>
      </trkpt>
      <trkpt lat="47.28031" lon="6.23295">
        <ele>453</ele>
        <time>2014-05-08T09:43:48.000Z</time>
      </trkpt>
      <trkpt lat="47.28029" lon="6.23277">
        <ele>452</ele>
        <time>2014-05-08T09:43:50.000Z</time>
      </trkpt>
      <trkpt lat="47.28027" lon="6.23259">
        <ele>453</ele>
        <time>2014-05-08T09:43:52.000Z</time>
      </trkpt>
      <trkpt lat="47.28024" lon="6.23243">
        <ele>453</ele>
        <time>2014-05-08T09:43:54.000Z</time>
      </trkpt>
      <trkpt lat="47.28022" lon="6.23226">
        <ele>453</ele>
        <time>2014-05-08T09:43:56.000Z</time>
      </trkpt>
      <trkpt lat="47.28019" lon="6.2321">
        <ele>453</ele>
        <time>2014-05-08T09:43:59.000Z</time>
      </trkpt>
      <trkpt lat="47.28016" lon="6.23195">
        <ele>454</ele>
        <time>2014-05-08T09:44:00.000Z</time>
      </trkpt>
      <trkpt lat="47.28012" lon="6.2318">
        <ele>454</ele>
        <time>2014-05-08T09:44:02.000Z</time>
      </trkpt>
      <trkpt lat="47.28008" lon="6.23164">
        <ele>452</ele>
        <time>2014-05-08T09:44:05.000Z</time>
      </trkpt>
      <trkpt lat="47.28003" lon="6.2315">
        <ele>452</ele>
        <time>2014-05-08T09:44:06.000Z</time>
      </trkpt>
      <trkpt lat="47.27998" lon="6.23135">
        <ele>452</ele>
        <time>2014-05-08T09:44:08.000Z</time>
      </trkpt>
      <trkpt lat="47.27992" lon="6.2312">
        <ele>453</ele>
        <time>2014-05-08T09:44:10.000Z</time>
      </trkpt>
      <trkpt lat="47.27987" lon="6.23107">
        <ele>453</ele>
        <time>2014-05-08T09:44:12.000Z</time>
      </trkpt>
      <trkpt lat="47.27987" lon="6.23107">
        <ele>453</ele>
        <time>2014-05-08T09:44:14.000Z</time>
      </trkpt>
      <trkpt lat="47.27987" lon="6.23107">
        <ele>453</ele>
        <time>2014-05-08T09:44:16.000Z</time>
      </trkpt>
      <trkpt lat="47.27987" lon="6.23107">
        <ele>453</ele>
        <time>2014-05-08T09:44:18.000Z</time>
      </trkpt>
      <trkpt lat="47.27961" lon="6.23041">
        <ele>454</ele>
        <time>2014-05-08T09:44:22.000Z</time>
      </trkpt>
      <trkpt lat="47.27954" lon="6.23027">
        <ele>453</ele>
        <time>2014-05-08T09:44:24.000Z</time>
      </trkpt>
      <trkpt lat="47.27948" lon="6.23014">
        <ele>453</ele>
        <time>2014-05-08T09:44:26.000Z</time>
      </trkpt>
      <trkpt lat="47.27942" lon="6.23">
        <ele>454</ele>
        <time>2014-05-08T09:44:28.000Z</time>
      </trkpt>
      <trkpt lat="47.27935" lon="6.22987">
        <ele>454</ele>
        <time>2014-05-08T09:44:30.000Z</time>
      </trkpt>
      <trkpt lat="47.27928" lon="6.22971">
        <ele>454</ele>
        <time>2014-05-08T09:44:32.000Z</time>
      </trkpt>
      <trkpt lat="47.2792" lon="6.22955">
        <ele>453</ele>
        <time>2014-05-08T09:44:34.000Z</time>
      </trkpt>
      <trkpt lat="47.27914" lon="6.22941">
        <ele>454</ele>
        <time>2014-05-08T09:44:36.000Z</time>
      </trkpt>
      <trkpt lat="47.27908" lon="6.22925">
        <ele>453</ele>
        <time>2014-05-08T09:44:38.000Z</time>
      </trkpt>
      <trkpt lat="47.27901" lon="6.22908">
        <ele>453</ele>
        <time>2014-05-08T09:44:40.000Z</time>
      </trkpt>
      <trkpt lat="47.27896" lon="6.22891">
        <ele>453</ele>
        <time>2014-05-08T09:44:42.000Z</time>
      </trkpt>
      <trkpt lat="47.2789" lon="6.22872">
        <ele>452</ele>
        <time>2014-05-08T09:44:44.000Z</time>
      </trkpt>
      <trkpt lat="47.27882" lon="6.22853">
        <ele>451</ele>
        <time>2014-05-08T09:44:46.000Z</time>
      </trkpt>
      <trkpt lat="47.27872" lon="6.22836">
        <ele>450</ele>
        <time>2014-05-08T09:44:48.000Z</time>
      </trkpt>
      <trkpt lat="47.27858" lon="6.22824">
        <ele>449</ele>
        <time>2014-05-08T09:44:50.000Z</time>
      </trkpt>
      <trkpt lat="47.27843" lon="6.22815">
        <ele>449</ele>
        <time>2014-05-08T09:44:52.000Z</time>
      </trkpt>
      <trkpt lat="47.27827" lon="6.22809">
        <ele>450</ele>
        <time>2014-05-08T09:44:55.000Z</time>
      </trkpt>
      <trkpt lat="47.27811" lon="6.22804">
        <ele>450</ele>
        <time>2014-05-08T09:44:56.000Z</time>
      </trkpt>
      <trkpt lat="47.27795" lon="6.22799">
        <ele>450</ele>
        <time>2014-05-08T09:44:58.000Z</time>
      </trkpt>
      <trkpt lat="47.2778" lon="6.22795">
        <ele>451</ele>
        <time>2014-05-08T09:45:00.000Z</time>
      </trkpt>
      <trkpt lat="47.27765" lon="6.22793">
        <ele>449</ele>
        <time>2014-05-08T09:45:02.000Z</time>
      </trkpt>
      <trkpt lat="47.2775" lon="6.22791">
        <ele>450</ele>
        <time>2014-05-08T09:45:04.000Z</time>
      </trkpt>
      <trkpt lat="47.27738" lon="6.22794">
        <ele>448</ele>
        <time>2014-05-08T09:45:07.000Z</time>
      </trkpt>
      <trkpt lat="47.27723" lon="6.22797">
        <ele>449</ele>
        <time>2014-05-08T09:45:08.000Z</time>
      </trkpt>
      <trkpt lat="47.27711" lon="6.22798">
        <ele>449</ele>
        <time>2014-05-08T09:45:10.000Z</time>
      </trkpt>
      <trkpt lat="47.277" lon="6.22799">
        <ele>449</ele>
        <time>2014-05-08T09:45:12.000Z</time>
      </trkpt>
      <trkpt lat="47.27685" lon="6.22798">
        <ele>451</ele>
        <time>2014-05-08T09:45:14.000Z</time>
      </trkpt>
      <trkpt lat="47.2767" lon="6.22793">
        <ele>450</ele>
        <time>2014-05-08T09:45:16.000Z</time>
      </trkpt>
      <trkpt lat="47.27656" lon="6.22788">
        <ele>451</ele>
        <time>2014-05-08T09:45:18.000Z</time>
      </trkpt>
      <trkpt lat="47.2764" lon="6.22784">
        <ele>451</ele>
        <time>2014-05-08T09:45:20.000Z</time>
      </trkpt>
      <trkpt lat="47.27625" lon="6.22779">
        <ele>451</ele>
        <time>2014-05-08T09:45:22.000Z</time>
      </trkpt>
      <trkpt lat="47.27609" lon="6.22775">
        <ele>451</ele>
        <time>2014-05-08T09:45:24.000Z</time>
      </trkpt>
      <trkpt lat="47.27593" lon="6.22772">
        <ele>450</ele>
        <time>2014-05-08T09:45:27.000Z</time>
      </trkpt>
      <trkpt lat="47.27577" lon="6.22766">
        <ele>449</ele>
        <time>2014-05-08T09:45:28.000Z</time>
      </trkpt>
      <trkpt lat="47.27562" lon="6.22759">
        <ele>449</ele>
        <time>2014-05-08T09:45:30.000Z</time>
      </trkpt>
      <trkpt lat="47.27547" lon="6.2275">
        <ele>448</ele>
        <time>2014-05-08T09:45:32.000Z</time>
      </trkpt>
      <trkpt lat="47.27534" lon="6.22738">
        <ele>447</ele>
        <time>2014-05-08T09:45:34.000Z</time>
      </trkpt>
      <trkpt lat="47.27525" lon="6.22722">
        <ele>448</ele>
        <time>2014-05-08T09:45:36.000Z</time>
      </trkpt>
      <trkpt lat="47.27515" lon="6.22708">
        <ele>448</ele>
        <time>2014-05-08T09:45:38.000Z</time>
      </trkpt>
      <trkpt lat="47.27507" lon="6.22692">
        <ele>449</ele>
        <time>2014-05-08T09:45:40.000Z</time>
      </trkpt>
      <trkpt lat="47.275" lon="6.22676">
        <ele>451</ele>
        <time>2014-05-08T09:45:42.000Z</time>
      </trkpt>
      <trkpt lat="47.27491" lon="6.22661">
        <ele>451</ele>
        <time>2014-05-08T09:45:44.000Z</time>
      </trkpt>
      <trkpt lat="47.27484" lon="6.22646">
        <ele>452</ele>
        <time>2014-05-08T09:45:46.000Z</time>
      </trkpt>
      <trkpt lat="47.27477" lon="6.22631">
        <ele>453</ele>
        <time>2014-05-08T09:45:48.000Z</time>
      </trkpt>
      <trkpt lat="47.2747" lon="6.22617">
        <ele>451</ele>
        <time>2014-05-08T09:45:50.000Z</time>
      </trkpt>
      <trkpt lat="47.27462" lon="6.22604">
        <ele>452</ele>
        <time>2014-05-08T09:45:52.000Z</time>
      </trkpt>
      <trkpt lat="47.27456" lon="6.2259">
        <ele>452</ele>
        <time>2014-05-08T09:45:54.000Z</time>
      </trkpt>
      <trkpt lat="47.27448" lon="6.22575">
        <ele>451</ele>
        <time>2014-05-08T09:45:56.000Z</time>
      </trkpt>
      <trkpt lat="47.27441" lon="6.2256">
        <ele>452</ele>
        <time>2014-05-08T09:45:59.000Z</time>
      </trkpt>
      <trkpt lat="47.27433" lon="6.22545">
        <ele>451</ele>
        <time>2014-05-08T09:46:00.000Z</time>
      </trkpt>
      <trkpt lat="47.27425" lon="6.22531">
        <ele>452</ele>
        <time>2014-05-08T09:46:02.000Z</time>
      </trkpt>
      <trkpt lat="47.27419" lon="6.22518">
        <ele>454</ele>
        <time>2014-05-08T09:46:04.000Z</time>
      </trkpt>
      <trkpt lat="47.27409" lon="6.22504">
        <ele>452</ele>
        <time>2014-05-08T09:46:06.000Z</time>
      </trkpt>
      <trkpt lat="47.27402" lon="6.22492">
        <ele>452</ele>
        <time>2014-05-08T09:46:08.000Z</time>
      </trkpt>
      <trkpt lat="47.27395" lon="6.22479">
        <ele>454</ele>
        <time>2014-05-08T09:46:10.000Z</time>
      </trkpt>
      <trkpt lat="47.27389" lon="6.22468">
        <ele>457</ele>
        <time>2014-05-08T09:46:12.000Z</time>
      </trkpt>
      <trkpt lat="47.2738" lon="6.22454">
        <ele>455</ele>
        <time>2014-05-08T09:46:14.000Z</time>
      </trkpt>
      <trkpt lat="47.27373" lon="6.2244">
        <ele>454</ele>
        <time>2014-05-08T09:46:16.000Z</time>
      </trkpt>
      <trkpt lat="47.27365" lon="6.22426">
        <ele>454</ele>
        <time>2014-05-08T09:46:18.000Z</time>
      </trkpt>
      <trkpt lat="47.27358" lon="6.22413">
        <ele>454</ele>
        <time>2014-05-08T09:46:20.000Z</time>
      </trkpt>
      <trkpt lat="47.27351" lon="6.224">
        <ele>455</ele>
        <time>2014-05-08T09:46:22.000Z</time>
      </trkpt>
      <trkpt lat="47.27345" lon="6.22388">
        <ele>455</ele>
        <time>2014-05-08T09:46:24.000Z</time>
      </trkpt>
      <trkpt lat="47.27338" lon="6.22376">
        <ele>456</ele>
        <time>2014-05-08T09:46:26.000Z</time>
      </trkpt>
      <trkpt lat="47.27332" lon="6.22362">
        <ele>456</ele>
        <time>2014-05-08T09:46:28.000Z</time>
      </trkpt>
      <trkpt lat="47.27324" lon="6.2235">
        <ele>457</ele>
        <time>2014-05-08T09:46:31.000Z</time>
      </trkpt>
      <trkpt lat="47.27318" lon="6.22336">
        <ele>456</ele>
        <time>2014-05-08T09:46:32.000Z</time>
      </trkpt>
      <trkpt lat="47.2731" lon="6.22321">
        <ele>455</ele>
        <time>2014-05-08T09:46:35.000Z</time>
      </trkpt>
      <trkpt lat="47.27303" lon="6.22308">
        <ele>454</ele>
        <time>2014-05-08T09:46:36.000Z</time>
      </trkpt>
      <trkpt lat="47.27295" lon="6.22293">
        <ele>454</ele>
        <time>2014-05-08T09:46:38.000Z</time>
      </trkpt>
      <trkpt lat="47.27287" lon="6.22278">
        <ele>453</ele>
        <time>2014-05-08T09:46:40.000Z</time>
      </trkpt>
      <trkpt lat="47.2728" lon="6.22265">
        <ele>452</ele>
        <time>2014-05-08T09:46:42.000Z</time>
      </trkpt>
      <trkpt lat="47.27273" lon="6.2225">
        <ele>452</ele>
        <time>2014-05-08T09:46:44.000Z</time>
      </trkpt>
      <trkpt lat="47.27266" lon="6.22236">
        <ele>451</ele>
        <time>2014-05-08T09:46:46.000Z</time>
      </trkpt>
      <trkpt lat="47.27257" lon="6.22221">
        <ele>452</ele>
        <time>2014-05-08T09:46:48.000Z</time>
      </trkpt>
      <trkpt lat="47.27248" lon="6.22204">
        <ele>452</ele>
        <time>2014-05-08T09:46:50.000Z</time>
      </trkpt>
      <trkpt lat="47.27241" lon="6.22187">
        <ele>453</ele>
        <time>2014-05-08T09:46:52.000Z</time>
      </trkpt>
      <trkpt lat="47.27232" lon="6.2217">
        <ele>452</ele>
        <time>2014-05-08T09:46:54.000Z</time>
      </trkpt>
      <trkpt lat="47.27223" lon="6.22152">
        <ele>450</ele>
        <time>2014-05-08T09:46:56.000Z</time>
      </trkpt>
      <trkpt lat="47.27213" lon="6.22131">
        <ele>449</ele>
        <time>2014-05-08T09:46:58.000Z</time>
      </trkpt>
      <trkpt lat="47.27202" lon="6.2211">
        <ele>449</ele>
        <time>2014-05-08T09:47:00.000Z</time>
      </trkpt>
      <trkpt lat="47.2719" lon="6.22089">
        <ele>448</ele>
        <time>2014-05-08T09:47:02.000Z</time>
      </trkpt>
      <trkpt lat="47.27179" lon="6.22068">
        <ele>447</ele>
        <time>2014-05-08T09:47:04.000Z</time>
      </trkpt>
      <trkpt lat="47.2717" lon="6.22047">
        <ele>448</ele>
        <time>2014-05-08T09:47:06.000Z</time>
      </trkpt>
      <trkpt lat="47.2716" lon="6.22027">
        <ele>447</ele>
        <time>2014-05-08T09:47:08.000Z</time>
      </trkpt>
      <trkpt lat="47.2715" lon="6.22006">
        <ele>447</ele>
        <time>2014-05-08T09:47:10.000Z</time>
      </trkpt>
      <trkpt lat="47.27138" lon="6.21985">
        <ele>447</ele>
        <time>2014-05-08T09:47:12.000Z</time>
      </trkpt>
      <trkpt lat="47.27128" lon="6.21964">
        <ele>447</ele>
        <time>2014-05-08T09:47:15.000Z</time>
      </trkpt>
      <trkpt lat="47.27116" lon="6.21943">
        <ele>448</ele>
        <time>2014-05-08T09:47:16.000Z</time>
      </trkpt>
      <trkpt lat="47.27106" lon="6.21924">
        <ele>448</ele>
        <time>2014-05-08T09:47:18.000Z</time>
      </trkpt>
      <trkpt lat="47.27095" lon="6.21905">
        <ele>450</ele>
        <time>2014-05-08T09:47:20.000Z</time>
      </trkpt>
      <trkpt lat="47.27085" lon="6.21887">
        <ele>451</ele>
        <time>2014-05-08T09:47:22.000Z</time>
      </trkpt>
      <trkpt lat="47.27075" lon="6.21867">
        <ele>453</ele>
        <time>2014-05-08T09:47:24.000Z</time>
      </trkpt>
      <trkpt lat="47.27066" lon="6.21849">
        <ele>452</ele>
        <time>2014-05-08T09:47:26.000Z</time>
      </trkpt>
      <trkpt lat="47.27057" lon="6.21832">
        <ele>451</ele>
        <time>2014-05-08T09:47:28.000Z</time>
      </trkpt>
      <trkpt lat="47.27048" lon="6.21816">
        <ele>452</ele>
        <time>2014-05-08T09:47:30.000Z</time>
      </trkpt>
      <trkpt lat="47.27041" lon="6.21801">
        <ele>451</ele>
        <time>2014-05-08T09:47:32.000Z</time>
      </trkpt>
      <trkpt lat="47.27033" lon="6.21785">
        <ele>451</ele>
        <time>2014-05-08T09:47:35.000Z</time>
      </trkpt>
      <trkpt lat="47.27024" lon="6.21769">
        <ele>450</ele>
        <time>2014-05-08T09:47:36.000Z</time>
      </trkpt>
      <trkpt lat="47.27018" lon="6.21755">
        <ele>450</ele>
        <time>2014-05-08T09:47:38.000Z</time>
      </trkpt>
      <trkpt lat="47.2701" lon="6.2174">
        <ele>450</ele>
        <time>2014-05-08T09:47:40.000Z</time>
      </trkpt>
      <trkpt lat="47.27001" lon="6.21724">
        <ele>450</ele>
        <time>2014-05-08T09:47:42.000Z</time>
      </trkpt>
      <trkpt lat="47.26992" lon="6.21708">
        <ele>450</ele>
        <time>2014-05-08T09:47:44.000Z</time>
      </trkpt>
      <trkpt lat="47.26984" lon="6.21693">
        <ele>451</ele>
        <time>2014-05-08T09:47:46.000Z</time>
      </trkpt>
      <trkpt lat="47.26975" lon="6.2168">
        <ele>450</ele>
        <time>2014-05-08T09:47:48.000Z</time>
      </trkpt>
      <trkpt lat="47.26963" lon="6.21665">
        <ele>448</ele>
        <time>2014-05-08T09:47:50.000Z</time>
      </trkpt>
      <trkpt lat="47.26953" lon="6.21652">
        <ele>450</ele>
        <time>2014-05-08T09:47:52.000Z</time>
      </trkpt>
      <trkpt lat="47.26941" lon="6.21638">
        <ele>450</ele>
        <time>2014-05-08T09:47:54.000Z</time>
      </trkpt>
      <trkpt lat="47.2693" lon="6.21624">
        <ele>450</ele>
        <time>2014-05-08T09:47:56.000Z</time>
      </trkpt>
      <trkpt lat="47.26918" lon="6.21611">
        <ele>449</ele>
        <time>2014-05-08T09:47:58.000Z</time>
      </trkpt>
      <trkpt lat="47.26906" lon="6.21599">
        <ele>450</ele>
        <time>2014-05-08T09:48:00.000Z</time>
      </trkpt>
      <trkpt lat="47.26895" lon="6.2159">
        <ele>449</ele>
        <time>2014-05-08T09:48:02.000Z</time>
      </trkpt>
      <trkpt lat="47.26884" lon="6.21577">
        <ele>449</ele>
        <time>2014-05-08T09:48:04.000Z</time>
      </trkpt>
      <trkpt lat="47.26874" lon="6.21565">
        <ele>449</ele>
        <time>2014-05-08T09:48:06.000Z</time>
      </trkpt>
      <trkpt lat="47.26865" lon="6.21555">
        <ele>448</ele>
        <time>2014-05-08T09:48:08.000Z</time>
      </trkpt>
      <trkpt lat="47.26856" lon="6.21547">
        <ele>447</ele>
        <time>2014-05-08T09:48:11.000Z</time>
      </trkpt>
      <trkpt lat="47.26846" lon="6.21536">
        <ele>448</ele>
        <time>2014-05-08T09:48:12.000Z</time>
      </trkpt>
      <trkpt lat="47.26837" lon="6.21524">
        <ele>447</ele>
        <time>2014-05-08T09:48:15.000Z</time>
      </trkpt>
      <trkpt lat="47.26828" lon="6.21514">
        <ele>447</ele>
        <time>2014-05-08T09:48:16.000Z</time>
      </trkpt>
      <trkpt lat="47.26819" lon="6.21505">
        <ele>446</ele>
        <time>2014-05-08T09:48:18.000Z</time>
      </trkpt>
      <trkpt lat="47.26809" lon="6.21494">
        <ele>447</ele>
        <time>2014-05-08T09:48:20.000Z</time>
      </trkpt>
      <trkpt lat="47.268" lon="6.21486">
        <ele>448</ele>
        <time>2014-05-08T09:48:22.000Z</time>
      </trkpt>
      <trkpt lat="47.2679" lon="6.21478">
        <ele>449</ele>
        <time>2014-05-08T09:48:24.000Z</time>
      </trkpt>
      <trkpt lat="47.2678" lon="6.21467">
        <ele>450</ele>
        <time>2014-05-08T09:48:27.000Z</time>
      </trkpt>
      <trkpt lat="47.2677" lon="6.21457">
        <ele>450</ele>
        <time>2014-05-08T09:48:28.000Z</time>
      </trkpt>
      <trkpt lat="47.26762" lon="6.21446">
        <ele>450</ele>
        <time>2014-05-08T09:48:30.000Z</time>
      </trkpt>
      <trkpt lat="47.26755" lon="6.21436">
        <ele>449</ele>
        <time>2014-05-08T09:48:32.000Z</time>
      </trkpt>
      <trkpt lat="47.26755" lon="6.21436">
        <ele>449</ele>
        <time>2014-05-08T09:48:34.000Z</time>
      </trkpt>
      <trkpt lat="47.26755" lon="6.21436">
        <ele>449</ele>
        <time>2014-05-08T09:48:36.000Z</time>
      </trkpt>
      <trkpt lat="47.26755" lon="6.21436">
        <ele>449</ele>
        <time>2014-05-08T09:48:38.000Z</time>
      </trkpt>
      <trkpt lat="47.26755" lon="6.21436">
        <ele>449</ele>
        <time>2014-05-08T09:48:40.000Z</time>
      </trkpt>
      <trkpt lat="47.26755" lon="6.21436">
        <ele>449</ele>
        <time>2014-05-08T09:48:42.000Z</time>
      </trkpt>
      <trkpt lat="47.26736" lon="6.21345">
        <ele>450</ele>
        <time>2014-05-08T09:48:50.000Z</time>
      </trkpt>
      <trkpt lat="47.26741" lon="6.21331">
        <ele>451</ele>
        <time>2014-05-08T09:48:52.000Z</time>
      </trkpt>
      <trkpt lat="47.26747" lon="6.21319">
        <ele>452</ele>
        <time>2014-05-08T09:48:54.000Z</time>
      </trkpt>
      <trkpt lat="47.26755" lon="6.21303">
        <ele>451</ele>
        <time>2014-05-08T09:48:56.000Z</time>
      </trkpt>
      <trkpt lat="47.26762" lon="6.21293">
        <ele>452</ele>
        <time>2014-05-08T09:48:58.000Z</time>
      </trkpt>
      <trkpt lat="47.26769" lon="6.21279">
        <ele>452</ele>
        <time>2014-05-08T09:49:00.000Z</time>
      </trkpt>
      <trkpt lat="47.26774" lon="6.21267">
        <ele>451</ele>
        <time>2014-05-08T09:49:02.000Z</time>
      </trkpt>
      <trkpt lat="47.26774" lon="6.21267">
        <ele>451</ele>
        <time>2014-05-08T09:49:04.000Z</time>
      </trkpt>
      <trkpt lat="47.26774" lon="6.21267">
        <ele>451</ele>
        <time>2014-05-08T09:49:06.000Z</time>
      </trkpt>
      <trkpt lat="47.26774" lon="6.21267">
        <ele>451</ele>
        <time>2014-05-08T09:49:08.000Z</time>
      </trkpt>
      <trkpt lat="47.26774" lon="6.21267">
        <ele>451</ele>
        <time>2014-05-08T09:49:10.000Z</time>
      </trkpt>
      <trkpt lat="47.26774" lon="6.21267">
        <ele>451</ele>
        <time>2014-05-08T09:49:12.000Z</time>
      </trkpt>
      <trkpt lat="47.26774" lon="6.21267">
        <ele>451</ele>
        <time>2014-05-08T09:49:14.000Z</time>
      </trkpt>
      <trkpt lat="47.26785" lon="6.21226">
        <ele>454</ele>
        <time>2014-05-08T09:49:20.000Z</time>
      </trkpt>
      <trkpt lat="47.2679" lon="6.21201">
        <ele>457</ele>
        <time>2014-05-08T09:49:22.000Z</time>
      </trkpt>
      <trkpt lat="47.26792" lon="6.21183">
        <ele>454</ele>
        <time>2014-05-08T09:49:24.000Z</time>
      </trkpt>
      <trkpt lat="47.26793" lon="6.21168">
        <ele>454</ele>
        <time>2014-05-08T09:49:26.000Z</time>
      </trkpt>
      <trkpt lat="47.26794" lon="6.21151">
        <ele>453</ele>
        <time>2014-05-08T09:49:28.000Z</time>
      </trkpt>
      <trkpt lat="47.26796" lon="6.21119">
        <ele>452</ele>
        <time>2014-05-08T09:49:30.000Z</time>
      </trkpt>
      <trkpt lat="47.268" lon="6.21106">
        <ele>450</ele>
        <time>2014-05-08T09:49:32.000Z</time>
      </trkpt>
      <trkpt lat="47.26814" lon="6.21088">
        <ele>449</ele>
        <time>2014-05-08T09:49:36.000Z</time>
      </trkpt>
      <trkpt lat="47.26824" lon="6.2108">
        <ele>448</ele>
        <time>2014-05-08T09:49:38.000Z</time>
      </trkpt>
      <trkpt lat="47.26833" lon="6.21073">
        <ele>449</ele>
        <time>2014-05-08T09:49:40.000Z</time>
      </trkpt>
      <trkpt lat="47.26843" lon="6.21067">
        <ele>449</ele>
        <time>2014-05-08T09:49:42.000Z</time>
      </trkpt>
      <trkpt lat="47.26852" lon="6.21059">
        <ele>450</ele>
        <time>2014-05-08T09:49:44.000Z</time>
      </trkpt>
      <trkpt lat="47.26861" lon="6.21051">
        <ele>449</ele>
        <time>2014-05-08T09:49:46.000Z</time>
      </trkpt>
      <trkpt lat="47.26861" lon="6.21051">
        <ele>449</ele>
        <time>2014-05-08T09:49:48.000Z</time>
      </trkpt>
      <trkpt lat="47.26861" lon="6.21051">
        <ele>449</ele>
        <time>2014-05-08T09:49:50.000Z</time>
      </trkpt>
      <trkpt lat="47.26861" lon="6.21051">
        <ele>449</ele>
        <time>2014-05-08T09:49:52.000Z</time>
      </trkpt>
      <trkpt lat="47.26861" lon="6.21051">
        <ele>449</ele>
        <time>2014-05-08T09:49:54.000Z</time>
      </trkpt>
      <trkpt lat="47.26861" lon="6.21051">
        <ele>449</ele>
        <time>2014-05-08T09:49:56.000Z</time>
      </trkpt>
      <trkpt lat="47.26873" lon="6.20973">
        <ele>454</ele>
        <time>2014-05-08T09:50:02.000Z</time>
      </trkpt>
      <trkpt lat="47.26875" lon="6.20951">
        <ele>455</ele>
        <time>2014-05-08T09:50:06.000Z</time>
      </trkpt>
      <trkpt lat="47.26883" lon="6.20925">
        <ele>455</ele>
        <time>2014-05-08T09:50:10.000Z</time>
      </trkpt>
      <trkpt lat="47.26886" lon="6.20911">
        <ele>456</ele>
        <time>2014-05-08T09:50:12.000Z</time>
      </trkpt>
      <trkpt lat="47.26889" lon="6.20899">
        <ele>456</ele>
        <time>2014-05-08T09:50:14.000Z</time>
      </trkpt>
      <trkpt lat="47.26891" lon="6.20885">
        <ele>456</ele>
        <time>2014-05-08T09:50:16.000Z</time>
      </trkpt>
      <trkpt lat="47.26894" lon="6.20871">
        <ele>456</ele>
        <time>2014-05-08T09:50:18.000Z</time>
      </trkpt>
      <trkpt lat="47.26898" lon="6.20856">
        <ele>453</ele>
        <time>2014-05-08T09:50:20.000Z</time>
      </trkpt>
      <trkpt lat="47.26899" lon="6.20841">
        <ele>452</ele>
        <time>2014-05-08T09:50:22.000Z</time>
      </trkpt>
      <trkpt lat="47.26904" lon="6.20816">
        <ele>451</ele>
        <time>2014-05-08T09:50:26.000Z</time>
      </trkpt>
      <trkpt lat="47.26904" lon="6.20816">
        <ele>451</ele>
        <time>2014-05-08T09:50:28.000Z</time>
      </trkpt>
      <trkpt lat="47.26904" lon="6.20816">
        <ele>451</ele>
        <time>2014-05-08T09:50:30.000Z</time>
      </trkpt>
      <trkpt lat="47.26904" lon="6.20816">
        <ele>451</ele>
        <time>2014-05-08T09:50:32.000Z</time>
      </trkpt>
      <trkpt lat="47.26904" lon="6.20816">
        <ele>451</ele>
        <time>2014-05-08T09:50:34.000Z</time>
      </trkpt>
      <trkpt lat="47.2691" lon="6.20724">
        <ele>454</ele>
        <time>2014-05-08T09:50:44.000Z</time>
      </trkpt>
      <trkpt lat="47.26913" lon="6.20703">
        <ele>455</ele>
        <time>2014-05-08T09:50:48.000Z</time>
      </trkpt>
      <trkpt lat="47.26916" lon="6.20682">
        <ele>456</ele>
        <time>2014-05-08T09:50:52.000Z</time>
      </trkpt>
      <trkpt lat="47.26923" lon="6.20662">
        <ele>453</ele>
        <time>2014-05-08T09:50:56.000Z</time>
      </trkpt>
      <trkpt lat="47.2693" lon="6.20645">
        <ele>453</ele>
        <time>2014-05-08T09:51:01.000Z</time>
      </trkpt>
      <trkpt lat="47.26939" lon="6.20626">
        <ele>452</ele>
        <time>2014-05-08T09:51:04.000Z</time>
      </trkpt>
      <trkpt lat="47.26946" lon="6.20606">
        <ele>453</ele>
        <time>2014-05-08T09:51:08.000Z</time>
      </trkpt>
      <trkpt lat="47.26952" lon="6.20586">
        <ele>455</ele>
        <time>2014-05-08T09:51:12.000Z</time>
      </trkpt>
      <trkpt lat="47.26952" lon="6.20586">
        <ele>455</ele>
        <time>2014-05-08T09:51:14.000Z</time>
      </trkpt>
      <trkpt lat="47.26952" lon="6.20586">
        <ele>455</ele>
        <time>2014-05-08T09:51:16.000Z</time>
      </trkpt>
      <trkpt lat="47.26952" lon="6.20586">
        <ele>455</ele>
        <time>2014-05-08T09:51:18.000Z</time>
      </trkpt>
      <trkpt lat="47.26952" lon="6.20586">
        <ele>455</ele>
        <time>2014-05-08T09:51:20.000Z</time>
      </trkpt>
      <trkpt lat="47.26952" lon="6.20586">
        <ele>455</ele>
        <time>2014-05-08T09:51:22.000Z</time>
      </trkpt>
      <trkpt lat="47.26952" lon="6.20586">
        <ele>455</ele>
        <time>2014-05-08T09:51:24.000Z</time>
      </trkpt>
      <trkpt lat="47.26952" lon="6.20586">
        <ele>455</ele>
        <time>2014-05-08T09:51:26.000Z</time>
      </trkpt>
      <trkpt lat="47.26952" lon="6.20586">
        <ele>455</ele>
        <time>2014-05-08T09:51:28.000Z</time>
      </trkpt>
      <trkpt lat="47.26952" lon="6.20586">
        <ele>455</ele>
        <time>2014-05-08T09:51:30.000Z</time>
      </trkpt>
      <trkpt lat="47.26952" lon="6.20586">
        <ele>455</ele>
        <time>2014-05-08T09:51:32.000Z</time>
      </trkpt>
      <trkpt lat="47.26952" lon="6.20586">
        <ele>455</ele>
        <time>2014-05-08T09:51:34.000Z</time>
      </trkpt>
      <trkpt lat="47.26952" lon="6.20586">
        <ele>455</ele>
        <time>2014-05-08T09:51:36.000Z</time>
      </trkpt>
      <trkpt lat="47.26952" lon="6.20586">
        <ele>455</ele>
        <time>2014-05-08T09:51:38.000Z</time>
      </trkpt>
      <trkpt lat="47.26952" lon="6.20586">
        <ele>455</ele>
        <time>2014-05-08T09:51:40.000Z</time>
      </trkpt>
      <trkpt lat="47.26952" lon="6.20586">
        <ele>455</ele>
        <time>2014-05-08T09:51:42.000Z</time>
      </trkpt>
      <trkpt lat="47.26952" lon="6.20586">
        <ele>455</ele>
        <time>2014-05-08T09:51:44.000Z</time>
      </trkpt>
      <trkpt lat="47.26952" lon="6.20586">
        <ele>455</ele>
        <time>2014-05-08T09:51:46.000Z</time>
      </trkpt>
      <trkpt lat="47.26952" lon="6.20586">
        <ele>455</ele>
        <time>2014-05-08T09:51:48.000Z</time>
      </trkpt>
      <trkpt lat="47.26952" lon="6.20586">
        <ele>455</ele>
        <time>2014-05-08T09:51:50.000Z</time>
      </trkpt>
      <trkpt lat="47.26952" lon="6.20586">
        <ele>455</ele>
        <time>2014-05-08T09:51:52.000Z</time>
      </trkpt>
      <trkpt lat="47.26952" lon="6.20586">
        <ele>455</ele>
        <time>2014-05-08T09:51:54.000Z</time>
      </trkpt>
      <trkpt lat="47.26952" lon="6.20586">
        <ele>455</ele>
        <time>2014-05-08T09:51:56.000Z</time>
      </trkpt>
      <trkpt lat="47.26952" lon="6.20586">
        <ele>455</ele>
        <time>2014-05-08T09:51:58.000Z</time>
      </trkpt>
      <trkpt lat="47.26952" lon="6.20586">
        <ele>455</ele>
        <time>2014-05-08T09:52:00.000Z</time>
      </trkpt>
      <trkpt lat="47.26952" lon="6.20586">
        <ele>455</ele>
        <time>2014-05-08T09:52:02.000Z</time>
      </trkpt>
      <trkpt lat="47.26952" lon="6.20586">
        <ele>455</ele>
        <time>2014-05-08T09:52:04.000Z</time>
      </trkpt>
      <trkpt lat="47.26952" lon="6.20586">
        <ele>455</ele>
        <time>2014-05-08T09:52:06.000Z</time>
      </trkpt>
      <trkpt lat="47.26952" lon="6.20586">
        <ele>455</ele>
        <time>2014-05-08T09:52:08.000Z</time>
      </trkpt>
      <trkpt lat="47.26952" lon="6.20586">
        <ele>455</ele>
        <time>2014-05-08T09:52:10.000Z</time>
      </trkpt>
      <trkpt lat="47.26952" lon="6.20586">
        <ele>455</ele>
        <time>2014-05-08T09:52:12.000Z</time>
      </trkpt>
      <trkpt lat="47.26952" lon="6.20586">
        <ele>455</ele>
        <time>2014-05-08T09:52:14.000Z</time>
      </trkpt>
      <trkpt lat="47.26952" lon="6.20586">
        <ele>455</ele>
        <time>2014-05-08T09:52:16.000Z</time>
      </trkpt>
      <trkpt lat="47.26979" lon="6.20445">
        <ele>461</ele>
        <time>2014-05-08T09:52:18.000Z</time>
      </trkpt>
      <trkpt lat="47.26992" lon="6.20368">
        <ele>461</ele>
        <time>2014-05-08T09:52:20.000Z</time>
      </trkpt>
      <trkpt lat="47.26999" lon="6.20325">
        <ele>460</ele>
        <time>2014-05-08T09:52:22.000Z</time>
      </trkpt>
      <trkpt lat="47.27003" lon="6.20298">
        <ele>460</ele>
        <time>2014-05-08T09:52:25.000Z</time>
      </trkpt>
      <trkpt lat="47.27005" lon="6.20279">
        <ele>459</ele>
        <time>2014-05-08T09:52:26.000Z</time>
      </trkpt>
      <trkpt lat="47.27008" lon="6.20249">
        <ele>460</ele>
        <time>2014-05-08T09:52:28.000Z</time>
      </trkpt>
      <trkpt lat="47.2701" lon="6.20228">
        <ele>460</ele>
        <time>2014-05-08T09:52:32.000Z</time>
      </trkpt>
      <trkpt lat="47.27012" lon="6.20207">
        <ele>463</ele>
        <time>2014-05-08T09:52:36.000Z</time>
      </trkpt>
      <trkpt lat="47.27013" lon="6.20186">
        <ele>463</ele>
        <time>2014-05-08T09:52:40.000Z</time>
      </trkpt>
      <trkpt lat="47.27013" lon="6.20163">
        <ele>462</ele>
        <time>2014-05-08T09:52:44.000Z</time>
      </trkpt>
      <trkpt lat="47.27013" lon="6.20141">
        <ele>461</ele>
        <time>2014-05-08T09:52:48.000Z</time>
      </trkpt>
      <trkpt lat="47.27013" lon="6.20119">
        <ele>462</ele>
        <time>2014-05-08T09:52:52.000Z</time>
      </trkpt>
      <trkpt lat="47.27014" lon="6.20098">
        <ele>462</ele>
        <time>2014-05-08T09:52:56.000Z</time>
      </trkpt>
      <trkpt lat="47.27015" lon="6.20078">
        <ele>463</ele>
        <time>2014-05-08T09:53:00.000Z</time>
      </trkpt>
      <trkpt lat="47.27013" lon="6.20056">
        <ele>463</ele>
        <time>2014-05-08T09:53:04.000Z</time>
      </trkpt>
      <trkpt lat="47.27009" lon="6.20036">
        <ele>465</ele>
        <time>2014-05-08T09:53:08.000Z</time>
      </trkpt>
      <trkpt lat="47.27004" lon="6.20015">
        <ele>464</ele>
        <time>2014-05-08T09:53:12.000Z</time>
      </trkpt>
      <trkpt lat="47.27" lon="6.19993">
        <ele>464</ele>
        <time>2014-05-08T09:53:16.000Z</time>
      </trkpt>
      <trkpt lat="47.26996" lon="6.1997">
        <ele>463</ele>
        <time>2014-05-08T09:53:20.000Z</time>
      </trkpt>
      <trkpt lat="47.26991" lon="6.19942">
        <ele>464</ele>
        <time>2014-05-08T09:53:24.000Z</time>
      </trkpt>
      <trkpt lat="47.26988" lon="6.19929">
        <ele>461</ele>
        <time>2014-05-08T09:53:26.000Z</time>
      </trkpt>
      <trkpt lat="47.26987" lon="6.19914">
        <ele>460</ele>
        <time>2014-05-08T09:53:28.000Z</time>
      </trkpt>
      <trkpt lat="47.26986" lon="6.19898">
        <ele>459</ele>
        <time>2014-05-08T09:53:30.000Z</time>
      </trkpt>
      <trkpt lat="47.26987" lon="6.19883">
        <ele>459</ele>
        <time>2014-05-08T09:53:32.000Z</time>
      </trkpt>
      <trkpt lat="47.26989" lon="6.19868">
        <ele>458</ele>
        <time>2014-05-08T09:53:34.000Z</time>
      </trkpt>
      <trkpt lat="47.26991" lon="6.19853">
        <ele>457</ele>
        <time>2014-05-08T09:53:36.000Z</time>
      </trkpt>
      <trkpt lat="47.26991" lon="6.19838">
        <ele>458</ele>
        <time>2014-05-08T09:53:38.000Z</time>
      </trkpt>
      <trkpt lat="47.26991" lon="6.19823">
        <ele>458</ele>
        <time>2014-05-08T09:53:40.000Z</time>
      </trkpt>
      <trkpt lat="47.26991" lon="6.19823">
        <ele>458</ele>
        <time>2014-05-08T09:53:42.000Z</time>
      </trkpt>
      <trkpt lat="47.26991" lon="6.19823">
        <ele>458</ele>
        <time>2014-05-08T09:53:44.000Z</time>
      </trkpt>
      <trkpt lat="47.26991" lon="6.19823">
        <ele>458</ele>
        <time>2014-05-08T09:53:46.000Z</time>
      </trkpt>
      <trkpt lat="47.26991" lon="6.19823">
        <ele>458</ele>
        <time>2014-05-08T09:53:48.000Z</time>
      </trkpt>
      <trkpt lat="47.26991" lon="6.19823">
        <ele>458</ele>
        <time>2014-05-08T09:53:50.000Z</time>
      </trkpt>
      <trkpt lat="47.26991" lon="6.19823">
        <ele>458</ele>
        <time>2014-05-08T09:53:52.000Z</time>
      </trkpt>
      <trkpt lat="47.26991" lon="6.19823">
        <ele>458</ele>
        <time>2014-05-08T09:53:54.000Z</time>
      </trkpt>
      <trkpt lat="47.26991" lon="6.19823">
        <ele>458</ele>
        <time>2014-05-08T09:53:56.000Z</time>
      </trkpt>
      <trkpt lat="47.26991" lon="6.19823">
        <ele>458</ele>
        <time>2014-05-08T09:53:58.000Z</time>
      </trkpt>
      <trkpt lat="47.26991" lon="6.19823">
        <ele>458</ele>
        <time>2014-05-08T09:54:00.000Z</time>
      </trkpt>
      <trkpt lat="47.26965" lon="6.19672">
        <ele>463</ele>
        <time>2014-05-08T09:54:04.000Z</time>
      </trkpt>
      <trkpt lat="47.26959" lon="6.19661">
        <ele>463</ele>
        <time>2014-05-08T09:54:06.000Z</time>
      </trkpt>
      <trkpt lat="47.26947" lon="6.19639">
        <ele>461</ele>
        <time>2014-05-08T09:54:10.000Z</time>
      </trkpt>
      <trkpt lat="47.2694" lon="6.1963">
        <ele>460</ele>
        <time>2014-05-08T09:54:12.000Z</time>
      </trkpt>
      <trkpt lat="47.26931" lon="6.19619">
        <ele>459</ele>
        <time>2014-05-08T09:54:14.000Z</time>
      </trkpt>
      <trkpt lat="47.26922" lon="6.1961">
        <ele>457</ele>
        <time>2014-05-08T09:54:16.000Z</time>
      </trkpt>
      <trkpt lat="47.26915" lon="6.19599">
        <ele>457</ele>
        <time>2014-05-08T09:54:18.000Z</time>
      </trkpt>
      <trkpt lat="47.26908" lon="6.19586">
        <ele>458</ele>
        <time>2014-05-08T09:54:20.000Z</time>
      </trkpt>
      <trkpt lat="47.26902" lon="6.19572">
        <ele>459</ele>
        <time>2014-05-08T09:54:22.000Z</time>
      </trkpt>
      <trkpt lat="47.26895" lon="6.19556">
        <ele>458</ele>
        <time>2014-05-08T09:54:24.000Z</time>
      </trkpt>
      <trkpt lat="47.26889" lon="6.19539">
        <ele>458</ele>
        <time>2014-05-08T09:54:26.000Z</time>
      </trkpt>
      <trkpt lat="47.26884" lon="6.19521">
        <ele>457</ele>
        <time>2014-05-08T09:54:28.000Z</time>
      </trkpt>
      <trkpt lat="47.26879" lon="6.19503">
        <ele>458</ele>
        <time>2014-05-08T09:54:30.000Z</time>
      </trkpt>
      <trkpt lat="47.26873" lon="6.19485">
        <ele>455</ele>
        <time>2014-05-08T09:54:32.000Z</time>
      </trkpt>
      <trkpt lat="47.26867" lon="6.19465">
        <ele>456</ele>
        <time>2014-05-08T09:54:35.000Z</time>
      </trkpt>
      <trkpt lat="47.26862" lon="6.19447">
        <ele>457</ele>
        <time>2014-05-08T09:54:36.000Z</time>
      </trkpt>
      <trkpt lat="47.26858" lon="6.1943">
        <ele>456</ele>
        <time>2014-05-08T09:54:38.000Z</time>
      </trkpt>
      <trkpt lat="47.26854" lon="6.19413">
        <ele>457</ele>
        <time>2014-05-08T09:54:40.000Z</time>
      </trkpt>
      <trkpt lat="47.26849" lon="6.19396">
        <ele>457</ele>
        <time>2014-05-08T09:54:42.000Z</time>
      </trkpt>
      <trkpt lat="47.26844" lon="6.19381">
        <ele>458</ele>
        <time>2014-05-08T09:54:44.000Z</time>
      </trkpt>
      <trkpt lat="47.26839" lon="6.19364">
        <ele>458</ele>
        <time>2014-05-08T09:54:46.000Z</time>
      </trkpt>
      <trkpt lat="47.26835" lon="6.1935">
        <ele>457</ele>
        <time>2014-05-08T09:54:48.000Z</time>
      </trkpt>
      <trkpt lat="47.26828" lon="6.19334">
        <ele>457</ele>
        <time>2014-05-08T09:54:50.000Z</time>
      </trkpt>
      <trkpt lat="47.26821" lon="6.1932">
        <ele>458</ele>
        <time>2014-05-08T09:54:52.000Z</time>
      </trkpt>
      <trkpt lat="47.26813" lon="6.19307">
        <ele>457</ele>
        <time>2014-05-08T09:54:54.000Z</time>
      </trkpt>
      <trkpt lat="47.26804" lon="6.19294">
        <ele>457</ele>
        <time>2014-05-08T09:54:56.000Z</time>
      </trkpt>
      <trkpt lat="47.26795" lon="6.19281">
        <ele>457</ele>
        <time>2014-05-08T09:54:59.000Z</time>
      </trkpt>
      <trkpt lat="47.26786" lon="6.19268">
        <ele>457</ele>
        <time>2014-05-08T09:55:00.000Z</time>
      </trkpt>
      <trkpt lat="47.26777" lon="6.19254">
        <ele>456</ele>
        <time>2014-05-08T09:55:02.000Z</time>
      </trkpt>
      <trkpt lat="47.26769" lon="6.19239">
        <ele>455</ele>
        <time>2014-05-08T09:55:04.000Z</time>
      </trkpt>
      <trkpt lat="47.2676" lon="6.19226">
        <ele>454</ele>
        <time>2014-05-08T09:55:06.000Z</time>
      </trkpt>
      <trkpt lat="47.2675" lon="6.19213">
        <ele>455</ele>
        <time>2014-05-08T09:55:08.000Z</time>
      </trkpt>
      <trkpt lat="47.26741" lon="6.19198">
        <ele>454</ele>
        <time>2014-05-08T09:55:11.000Z</time>
      </trkpt>
      <trkpt lat="47.26731" lon="6.19183">
        <ele>454</ele>
        <time>2014-05-08T09:55:12.000Z</time>
      </trkpt>
      <trkpt lat="47.26722" lon="6.1917">
        <ele>453</ele>
        <time>2014-05-08T09:55:14.000Z</time>
      </trkpt>
      <trkpt lat="47.26713" lon="6.19157">
        <ele>455</ele>
        <time>2014-05-08T09:55:16.000Z</time>
      </trkpt>
      <trkpt lat="47.26704" lon="6.19144">
        <ele>455</ele>
        <time>2014-05-08T09:55:18.000Z</time>
      </trkpt>
      <trkpt lat="47.26694" lon="6.19132">
        <ele>454</ele>
        <time>2014-05-08T09:55:20.000Z</time>
      </trkpt>
      <trkpt lat="47.26686" lon="6.19118">
        <ele>454</ele>
        <time>2014-05-08T09:55:22.000Z</time>
      </trkpt>
      <trkpt lat="47.26678" lon="6.19103">
        <ele>454</ele>
        <time>2014-05-08T09:55:24.000Z</time>
      </trkpt>
      <trkpt lat="47.2667" lon="6.19091">
        <ele>454</ele>
        <time>2014-05-08T09:55:26.000Z</time>
      </trkpt>
      <trkpt lat="47.2667" lon="6.19091">
        <ele>454</ele>
        <time>2014-05-08T09:55:28.000Z</time>
      </trkpt>
      <trkpt lat="47.26659" lon="6.1907">
        <ele>455</ele>
        <time>2014-05-08T09:55:30.000Z</time>
      </trkpt>
      <trkpt lat="47.26659" lon="6.1907">
        <ele>455</ele>
        <time>2014-05-08T09:55:32.000Z</time>
      </trkpt>
      <trkpt lat="47.26659" lon="6.1907">
        <ele>455</ele>
        <time>2014-05-08T09:55:34.000Z</time>
      </trkpt>
      <trkpt lat="47.26659" lon="6.1907">
        <ele>455</ele>
        <time>2014-05-08T09:55:36.000Z</time>
      </trkpt>
      <trkpt lat="47.26659" lon="6.1907">
        <ele>455</ele>
        <time>2014-05-08T09:55:38.000Z</time>
      </trkpt>
      <trkpt lat="47.26659" lon="6.1907">
        <ele>455</ele>
        <time>2014-05-08T09:55:40.000Z</time>
      </trkpt>
      <trkpt lat="47.26659" lon="6.1907">
        <ele>455</ele>
        <time>2014-05-08T09:55:42.000Z</time>
      </trkpt>
      <trkpt lat="47.26634" lon="6.19032">
        <ele>458</ele>
        <time>2014-05-08T09:55:44.000Z</time>
      </trkpt>
      <trkpt lat="47.26618" lon="6.19007">
        <ele>455</ele>
        <time>2014-05-08T09:55:46.000Z</time>
      </trkpt>
      <trkpt lat="47.26606" lon="6.18989">
        <ele>453</ele>
        <time>2014-05-08T09:55:48.000Z</time>
      </trkpt>
      <trkpt lat="47.26597" lon="6.18974">
        <ele>452</ele>
        <time>2014-05-08T09:55:51.000Z</time>
      </trkpt>
      <trkpt lat="47.26588" lon="6.1896">
        <ele>452</ele>
        <time>2014-05-08T09:55:52.000Z</time>
      </trkpt>
      <trkpt lat="47.26571" lon="6.18932">
        <ele>452</ele>
        <time>2014-05-08T09:55:54.000Z</time>
      </trkpt>
      <trkpt lat="47.26562" lon="6.18918">
        <ele>453</ele>
        <time>2014-05-08T09:55:56.000Z</time>
      </trkpt>
      <trkpt lat="47.26553" lon="6.18904">
        <ele>453</ele>
        <time>2014-05-08T09:55:58.000Z</time>
      </trkpt>
      <trkpt lat="47.26543" lon="6.1889">
        <ele>454</ele>
        <time>2014-05-08T09:56:01.000Z</time>
      </trkpt>
      <trkpt lat="47.26535" lon="6.18876">
        <ele>455</ele>
        <time>2014-05-08T09:56:02.000Z</time>
      </trkpt>
      <trkpt lat="47.26526" lon="6.18861">
        <ele>454</ele>
        <time>2014-05-08T09:56:05.000Z</time>
      </trkpt>
      <trkpt lat="47.26516" lon="6.18845">
        <ele>454</ele>
        <time>2014-05-08T09:56:06.000Z</time>
      </trkpt>
      <trkpt lat="47.26506" lon="6.18829">
        <ele>455</ele>
        <time>2014-05-08T09:56:08.000Z</time>
      </trkpt>
      <trkpt lat="47.26495" lon="6.18816">
        <ele>452</ele>
        <time>2014-05-08T09:56:10.000Z</time>
      </trkpt>
      <trkpt lat="47.26486" lon="6.18802">
        <ele>451</ele>
        <time>2014-05-08T09:56:12.000Z</time>
      </trkpt>
      <trkpt lat="47.26477" lon="6.18789">
        <ele>451</ele>
        <time>2014-05-08T09:56:14.000Z</time>
      </trkpt>
      <trkpt lat="47.26469" lon="6.18776">
        <ele>451</ele>
        <time>2014-05-08T09:56:16.000Z</time>
      </trkpt>
      <trkpt lat="47.26461" lon="6.18761">
        <ele>450</ele>
        <time>2014-05-08T09:56:18.000Z</time>
      </trkpt>
      <trkpt lat="47.26453" lon="6.18749">
        <ele>450</ele>
        <time>2014-05-08T09:56:20.000Z</time>
      </trkpt>
      <trkpt lat="47.26444" lon="6.18735">
        <ele>451</ele>
        <time>2014-05-08T09:56:22.000Z</time>
      </trkpt>
      <trkpt lat="47.26436" lon="6.18723">
        <ele>452</ele>
        <time>2014-05-08T09:56:24.000Z</time>
      </trkpt>
      <trkpt lat="47.26428" lon="6.18712">
        <ele>452</ele>
        <time>2014-05-08T09:56:26.000Z</time>
      </trkpt>
      <trkpt lat="47.2642" lon="6.18702">
        <ele>454</ele>
        <time>2014-05-08T09:56:29.000Z</time>
      </trkpt>
      <trkpt lat="47.26413" lon="6.1869">
        <ele>454</ele>
        <time>2014-05-08T09:56:30.000Z</time>
      </trkpt>
      <trkpt lat="47.26406" lon="6.18678">
        <ele>455</ele>
        <time>2014-05-08T09:56:32.000Z</time>
      </trkpt>
      <trkpt lat="47.26406" lon="6.18678">
        <ele>455</ele>
        <time>2014-05-08T09:56:34.000Z</time>
      </trkpt>
      <trkpt lat="47.26406" lon="6.18678">
        <ele>455</ele>
        <time>2014-05-08T09:56:36.000Z</time>
      </trkpt>
      <trkpt lat="47.26406" lon="6.18678">
        <ele>455</ele>
        <time>2014-05-08T09:56:38.000Z</time>
      </trkpt>
      <trkpt lat="47.26406" lon="6.18678">
        <ele>455</ele>
        <time>2014-05-08T09:56:40.000Z</time>
      </trkpt>
      <trkpt lat="47.26406" lon="6.18678">
        <ele>455</ele>
        <time>2014-05-08T09:56:42.000Z</time>
      </trkpt>
      <trkpt lat="47.26406" lon="6.18678">
        <ele>455</ele>
        <time>2014-05-08T09:56:44.000Z</time>
      </trkpt>
      <trkpt lat="47.26352" lon="6.18591">
        <ele>456</ele>
        <time>2014-05-08T09:56:48.000Z</time>
      </trkpt>
      <trkpt lat="47.26352" lon="6.18591">
        <ele>456</ele>
        <time>2014-05-08T09:56:50.000Z</time>
      </trkpt>
      <trkpt lat="47.26352" lon="6.18591">
        <ele>456</ele>
        <time>2014-05-08T09:56:52.000Z</time>
      </trkpt>
      <trkpt lat="47.26331" lon="6.18558">
        <ele>457</ele>
        <time>2014-05-08T09:56:54.000Z</time>
      </trkpt>
      <trkpt lat="47.26324" lon="6.18547">
        <ele>457</ele>
        <time>2014-05-08T09:56:56.000Z</time>
      </trkpt>
      <trkpt lat="47.2632" lon="6.18535">
        <ele>458</ele>
        <time>2014-05-08T09:56:58.000Z</time>
      </trkpt>
      <trkpt lat="47.2632" lon="6.18535">
        <ele>458</ele>
        <time>2014-05-08T09:57:00.000Z</time>
      </trkpt>
      <trkpt lat="47.2632" lon="6.18535">
        <ele>458</ele>
        <time>2014-05-08T09:57:02.000Z</time>
      </trkpt>
      <trkpt lat="47.2632" lon="6.18535">
        <ele>458</ele>
        <time>2014-05-08T09:57:04.000Z</time>
      </trkpt>
      <trkpt lat="47.2632" lon="6.18535">
        <ele>458</ele>
        <time>2014-05-08T09:57:07.000Z</time>
      </trkpt>
      <trkpt lat="47.2632" lon="6.18535">
        <ele>458</ele>
        <time>2014-05-08T09:57:08.000Z</time>
      </trkpt>
      <trkpt lat="47.2632" lon="6.18535">
        <ele>458</ele>
        <time>2014-05-08T09:57:10.000Z</time>
      </trkpt>
      <trkpt lat="47.2632" lon="6.18535">
        <ele>458</ele>
        <time>2014-05-08T09:57:12.000Z</time>
      </trkpt>
      <trkpt lat="47.2632" lon="6.18535">
        <ele>458</ele>
        <time>2014-05-08T09:57:14.000Z</time>
      </trkpt>
      <trkpt lat="47.2632" lon="6.18535">
        <ele>458</ele>
        <time>2014-05-08T09:57:16.000Z</time>
      </trkpt>
      <trkpt lat="47.2632" lon="6.18535">
        <ele>458</ele>
        <time>2014-05-08T09:57:18.000Z</time>
      </trkpt>
      <trkpt lat="47.2632" lon="6.18535">
        <ele>458</ele>
        <time>2014-05-08T09:57:20.000Z</time>
      </trkpt>
      <trkpt lat="47.2632" lon="6.18535">
        <ele>458</ele>
        <time>2014-05-08T09:57:22.000Z</time>
      </trkpt>
      <trkpt lat="47.26247" lon="6.18531">
        <ele>459</ele>
        <time>2014-05-08T09:57:26.000Z</time>
      </trkpt>
      <trkpt lat="47.26233" lon="6.18534">
        <ele>460</ele>
        <time>2014-05-08T09:57:30.000Z</time>
      </trkpt>
      <trkpt lat="47.26218" lon="6.18539">
        <ele>459</ele>
        <time>2014-05-08T09:57:34.000Z</time>
      </trkpt>
      <trkpt lat="47.26203" lon="6.18544">
        <ele>456</ele>
        <time>2014-05-08T09:57:38.000Z</time>
      </trkpt>
      <trkpt lat="47.26184" lon="6.18551">
        <ele>456</ele>
        <time>2014-05-08T09:57:42.000Z</time>
      </trkpt>
      <trkpt lat="47.26168" lon="6.18559">
        <ele>456</ele>
        <time>2014-05-08T09:57:46.000Z</time>
      </trkpt>
      <trkpt lat="47.26151" lon="6.1857">
        <ele>456</ele>
        <time>2014-05-08T09:57:50.000Z</time>
      </trkpt>
      <trkpt lat="47.26136" lon="6.18583">
        <ele>456</ele>
        <time>2014-05-08T09:57:54.000Z</time>
      </trkpt>
      <trkpt lat="47.26128" lon="6.18589">
        <ele>455</ele>
        <time>2014-05-08T09:57:58.000Z</time>
      </trkpt>
      <trkpt lat="47.2612" lon="6.18595">
        <ele>455</ele>
        <time>2014-05-08T09:58:00.000Z</time>
      </trkpt>
      <trkpt lat="47.26112" lon="6.18601">
        <ele>456</ele>
        <time>2014-05-08T09:58:02.000Z</time>
      </trkpt>
      <trkpt lat="47.26112" lon="6.18601">
        <ele>456</ele>
        <time>2014-05-08T09:58:05.000Z</time>
      </trkpt>
      <trkpt lat="47.26112" lon="6.18601">
        <ele>456</ele>
        <time>2014-05-08T09:58:06.000Z</time>
      </trkpt>
      <trkpt lat="47.26092" lon="6.18614">
        <ele>463</ele>
        <time>2014-05-08T09:58:10.000Z</time>
      </trkpt>
      <trkpt lat="47.26077" lon="6.18623">
        <ele>462</ele>
        <time>2014-05-08T09:58:12.000Z</time>
      </trkpt>
      <trkpt lat="47.26065" lon="6.1863">
        <ele>462</ele>
        <time>2014-05-08T09:58:14.000Z</time>
      </trkpt>
      <trkpt lat="47.26054" lon="6.18636">
        <ele>461</ele>
        <time>2014-05-08T09:58:16.000Z</time>
      </trkpt>
      <trkpt lat="47.26043" lon="6.1864">
        <ele>460</ele>
        <time>2014-05-08T09:58:18.000Z</time>
      </trkpt>
      <trkpt lat="47.26021" lon="6.18646">
        <ele>460</ele>
        <time>2014-05-08T09:58:20.000Z</time>
      </trkpt>
      <trkpt lat="47.26009" lon="6.18649">
        <ele>457</ele>
        <time>2014-05-08T09:58:22.000Z</time>
      </trkpt>
      <trkpt lat="47.25997" lon="6.18652">
        <ele>456</ele>
        <time>2014-05-08T09:58:24.000Z</time>
      </trkpt>
      <trkpt lat="47.25985" lon="6.18655">
        <ele>456</ele>
        <time>2014-05-08T09:58:26.000Z</time>
      </trkpt>
      <trkpt lat="47.25972" lon="6.18658">
        <ele>456</ele>
        <time>2014-05-08T09:58:28.000Z</time>
      </trkpt>
      <trkpt lat="47.25959" lon="6.1866">
        <ele>455</ele>
        <time>2014-05-08T09:58:30.000Z</time>
      </trkpt>
      <trkpt lat="47.25947" lon="6.18663">
        <ele>453</ele>
        <time>2014-05-08T09:58:32.000Z</time>
      </trkpt>
      <trkpt lat="47.25935" lon="6.18666">
        <ele>454</ele>
        <time>2014-05-08T09:58:34.000Z</time>
      </trkpt>
      <trkpt lat="47.25921" lon="6.18668">
        <ele>452</ele>
        <time>2014-05-08T09:58:36.000Z</time>
      </trkpt>
      <trkpt lat="47.2591" lon="6.18672">
        <ele>452</ele>
        <time>2014-05-08T09:58:38.000Z</time>
      </trkpt>
      <trkpt lat="47.25898" lon="6.18676">
        <ele>451</ele>
        <time>2014-05-08T09:58:40.000Z</time>
      </trkpt>
      <trkpt lat="47.25885" lon="6.18679">
        <ele>451</ele>
        <time>2014-05-08T09:58:42.000Z</time>
      </trkpt>
      <trkpt lat="47.25871" lon="6.18681">
        <ele>451</ele>
        <time>2014-05-08T09:58:44.000Z</time>
      </trkpt>
      <trkpt lat="47.25858" lon="6.18684">
        <ele>452</ele>
        <time>2014-05-08T09:58:46.000Z</time>
      </trkpt>
      <trkpt lat="47.25845" lon="6.18687">
        <ele>451</ele>
        <time>2014-05-08T09:58:48.000Z</time>
      </trkpt>
      <trkpt lat="47.25831" lon="6.18687">
        <ele>451</ele>
        <time>2014-05-08T09:58:50.000Z</time>
      </trkpt>
      <trkpt lat="47.25819" lon="6.18683">
        <ele>450</ele>
        <time>2014-05-08T09:58:52.000Z</time>
      </trkpt>
      <trkpt lat="47.25807" lon="6.18679">
        <ele>450</ele>
        <time>2014-05-08T09:58:54.000Z</time>
      </trkpt>
      <trkpt lat="47.25795" lon="6.18672">
        <ele>450</ele>
        <time>2014-05-08T09:58:56.000Z</time>
      </trkpt>
      <trkpt lat="47.25782" lon="6.18669">
        <ele>451</ele>
        <time>2014-05-08T09:58:58.000Z</time>
      </trkpt>
      <trkpt lat="47.25769" lon="6.1867">
        <ele>450</ele>
        <time>2014-05-08T09:59:00.000Z</time>
      </trkpt>
      <trkpt lat="47.25757" lon="6.1867">
        <ele>451</ele>
        <time>2014-05-08T09:59:02.000Z</time>
      </trkpt>
      <trkpt lat="47.25744" lon="6.18669">
        <ele>451</ele>
        <time>2014-05-08T09:59:04.000Z</time>
      </trkpt>
      <trkpt lat="47.25732" lon="6.18667">
        <ele>452</ele>
        <time>2014-05-08T09:59:06.000Z</time>
      </trkpt>
      <trkpt lat="47.25722" lon="6.18663">
        <ele>454</ele>
        <time>2014-05-08T09:59:08.000Z</time>
      </trkpt>
      <trkpt lat="47.25711" lon="6.18663">
        <ele>454</ele>
        <time>2014-05-08T09:59:10.000Z</time>
      </trkpt>
      <trkpt lat="47.25701" lon="6.18662">
        <ele>456</ele>
        <time>2014-05-08T09:59:12.000Z</time>
      </trkpt>
      <trkpt lat="47.25692" lon="6.18661">
        <ele>456</ele>
        <time>2014-05-08T09:59:14.000Z</time>
      </trkpt>
      <trkpt lat="47.25681" lon="6.18659">
        <ele>456</ele>
        <time>2014-05-08T09:59:16.000Z</time>
      </trkpt>
      <trkpt lat="47.25669" lon="6.18657">
        <ele>455</ele>
        <time>2014-05-08T09:59:18.000Z</time>
      </trkpt>
      <trkpt lat="47.25657" lon="6.18656">
        <ele>455</ele>
        <time>2014-05-08T09:59:20.000Z</time>
      </trkpt>
      <trkpt lat="47.25657" lon="6.18656">
        <ele>455</ele>
        <time>2014-05-08T09:59:22.000Z</time>
      </trkpt>
      <trkpt lat="47.25657" lon="6.18656">
        <ele>455</ele>
        <time>2014-05-08T09:59:24.000Z</time>
      </trkpt>
      <trkpt lat="47.25657" lon="6.18656">
        <ele>455</ele>
        <time>2014-05-08T09:59:26.000Z</time>
      </trkpt>
      <trkpt lat="47.25657" lon="6.18656">
        <ele>455</ele>
        <time>2014-05-08T09:59:28.000Z</time>
      </trkpt>
      <trkpt lat="47.25657" lon="6.18656">
        <ele>455</ele>
        <time>2014-05-08T09:59:30.000Z</time>
      </trkpt>
      <trkpt lat="47.25584" lon="6.18647">
        <ele>457</ele>
        <time>2014-05-08T09:59:34.000Z</time>
      </trkpt>
      <trkpt lat="47.25574" lon="6.18648">
        <ele>456</ele>
        <time>2014-05-08T09:59:36.000Z</time>
      </trkpt>
      <trkpt lat="47.25562" lon="6.18646">
        <ele>456</ele>
        <time>2014-05-08T09:59:38.000Z</time>
      </trkpt>
      <trkpt lat="47.25551" lon="6.18644">
        <ele>456</ele>
        <time>2014-05-08T09:59:40.000Z</time>
      </trkpt>
      <trkpt lat="47.25538" lon="6.18643">
        <ele>456</ele>
        <time>2014-05-08T09:59:42.000Z</time>
      </trkpt>
      <trkpt lat="47.25526" lon="6.18642">
        <ele>455</ele>
        <time>2014-05-08T09:59:44.000Z</time>
      </trkpt>
      <trkpt lat="47.25513" lon="6.18636">
        <ele>456</ele>
        <time>2014-05-08T09:59:46.000Z</time>
      </trkpt>
      <trkpt lat="47.25501" lon="6.18626">
        <ele>456</ele>
        <time>2014-05-08T09:59:48.000Z</time>
      </trkpt>
      <trkpt lat="47.25489" lon="6.18616">
        <ele>456</ele>
        <time>2014-05-08T09:59:50.000Z</time>
      </trkpt>
      <trkpt lat="47.25478" lon="6.18604">
        <ele>456</ele>
        <time>2014-05-08T09:59:52.000Z</time>
      </trkpt>
      <trkpt lat="47.25468" lon="6.18591">
        <ele>455</ele>
        <time>2014-05-08T09:59:54.000Z</time>
      </trkpt>
      <trkpt lat="47.25458" lon="6.18575">
        <ele>455</ele>
        <time>2014-05-08T09:59:57.000Z</time>
      </trkpt>
      <trkpt lat="47.25449" lon="6.1856">
        <ele>456</ele>
        <time>2014-05-08T09:59:58.000Z</time>
      </trkpt>
      <trkpt lat="47.25441" lon="6.18547">
        <ele>457</ele>
        <time>2014-05-08T10:00:00.000Z</time>
      </trkpt>
      <trkpt lat="47.25433" lon="6.18534">
        <ele>457</ele>
        <time>2014-05-08T10:00:02.000Z</time>
      </trkpt>
      <trkpt lat="47.25425" lon="6.18521">
        <ele>457</ele>
        <time>2014-05-08T10:00:04.000Z</time>
      </trkpt>
      <trkpt lat="47.25415" lon="6.1851">
        <ele>456</ele>
        <time>2014-05-08T10:00:06.000Z</time>
      </trkpt>
      <trkpt lat="47.25405" lon="6.185">
        <ele>457</ele>
        <time>2014-05-08T10:00:08.000Z</time>
      </trkpt>
      <trkpt lat="47.25396" lon="6.18489">
        <ele>457</ele>
        <time>2014-05-08T10:00:10.000Z</time>
      </trkpt>
      <trkpt lat="47.25388" lon="6.18477">
        <ele>458</ele>
        <time>2014-05-08T10:00:12.000Z</time>
      </trkpt>
      <trkpt lat="47.25388" lon="6.18477">
        <ele>458</ele>
        <time>2014-05-08T10:00:14.000Z</time>
      </trkpt>
      <trkpt lat="47.25388" lon="6.18477">
        <ele>458</ele>
        <time>2014-05-08T10:00:16.000Z</time>
      </trkpt>
      <trkpt lat="47.25388" lon="6.18477">
        <ele>458</ele>
        <time>2014-05-08T10:00:18.000Z</time>
      </trkpt>
      <trkpt lat="47.25388" lon="6.18477">
        <ele>458</ele>
        <time>2014-05-08T10:00:20.000Z</time>
      </trkpt>
      <trkpt lat="47.25388" lon="6.18477">
        <ele>458</ele>
        <time>2014-05-08T10:00:22.000Z</time>
      </trkpt>
      <trkpt lat="47.25388" lon="6.18477">
        <ele>458</ele>
        <time>2014-05-08T10:00:24.000Z</time>
      </trkpt>
      <trkpt lat="47.25388" lon="6.18477">
        <ele>458</ele>
        <time>2014-05-08T10:00:26.000Z</time>
      </trkpt>
      <trkpt lat="47.25388" lon="6.18477">
        <ele>458</ele>
        <time>2014-05-08T10:00:28.000Z</time>
      </trkpt>
      <trkpt lat="47.25388" lon="6.18477">
        <ele>458</ele>
        <time>2014-05-08T10:00:30.000Z</time>
      </trkpt>
      <trkpt lat="47.25388" lon="6.18477">
        <ele>458</ele>
        <time>2014-05-08T10:00:32.000Z</time>
      </trkpt>
      <trkpt lat="47.25388" lon="6.18477">
        <ele>458</ele>
        <time>2014-05-08T10:00:34.000Z</time>
      </trkpt>
      <trkpt lat="47.25388" lon="6.18477">
        <ele>458</ele>
        <time>2014-05-08T10:00:36.000Z</time>
      </trkpt>
      <trkpt lat="47.25388" lon="6.18477">
        <ele>458</ele>
        <time>2014-05-08T10:00:38.000Z</time>
      </trkpt>
      <trkpt lat="47.25318" lon="6.18343">
        <ele>460</ele>
        <time>2014-05-08T10:00:45.000Z</time>
      </trkpt>
      <trkpt lat="47.25311" lon="6.18328">
        <ele>460</ele>
        <time>2014-05-08T10:00:48.000Z</time>
      </trkpt>
      <trkpt lat="47.25302" lon="6.18312">
        <ele>459</ele>
        <time>2014-05-08T10:00:53.000Z</time>
      </trkpt>
      <trkpt lat="47.25292" lon="6.18295">
        <ele>461</ele>
        <time>2014-05-08T10:00:56.000Z</time>
      </trkpt>
      <trkpt lat="47.25278" lon="6.18272">
        <ele>461</ele>
        <time>2014-05-08T10:01:00.000Z</time>
      </trkpt>
      <trkpt lat="47.25272" lon="6.18261">
        <ele>461</ele>
        <time>2014-05-08T10:01:02.000Z</time>
      </trkpt>
      <trkpt lat="47.25265" lon="6.18249">
        <ele>462</ele>
        <time>2014-05-08T10:01:04.000Z</time>
      </trkpt>
      <trkpt lat="47.25257" lon="6.18237">
        <ele>461</ele>
        <time>2014-05-08T10:01:06.000Z</time>
      </trkpt>
      <trkpt lat="47.2525" lon="6.18225">
        <ele>460</ele>
        <time>2014-05-08T10:01:08.000Z</time>
      </trkpt>
      <trkpt lat="47.25243" lon="6.18209">
        <ele>459</ele>
        <time>2014-05-08T10:01:10.000Z</time>
      </trkpt>
      <trkpt lat="47.25237" lon="6.18193">
        <ele>460</ele>
        <time>2014-05-08T10:01:12.000Z</time>
      </trkpt>
      <trkpt lat="47.25231" lon="6.18177">
        <ele>459</ele>
        <time>2014-05-08T10:01:14.000Z</time>
      </trkpt>
      <trkpt lat="47.25225" lon="6.18161">
        <ele>459</ele>
        <time>2014-05-08T10:01:16.000Z</time>
      </trkpt>
      <trkpt lat="47.25218" lon="6.18145">
        <ele>458</ele>
        <time>2014-05-08T10:01:18.000Z</time>
      </trkpt>
      <trkpt lat="47.2521" lon="6.18129">
        <ele>458</ele>
        <time>2014-05-08T10:01:20.000Z</time>
      </trkpt>
      <trkpt lat="47.25203" lon="6.18115">
        <ele>458</ele>
        <time>2014-05-08T10:01:22.000Z</time>
      </trkpt>
      <trkpt lat="47.25193" lon="6.18101">
        <ele>457</ele>
        <time>2014-05-08T10:01:24.000Z</time>
      </trkpt>
      <trkpt lat="47.25181" lon="6.18097">
        <ele>456</ele>
        <time>2014-05-08T10:01:26.000Z</time>
      </trkpt>
      <trkpt lat="47.2517" lon="6.18104">
        <ele>457</ele>
        <time>2014-05-08T10:01:28.000Z</time>
      </trkpt>
      <trkpt lat="47.2516" lon="6.18115">
        <ele>458</ele>
        <time>2014-05-08T10:01:30.000Z</time>
      </trkpt>
      <trkpt lat="47.25152" lon="6.18126">
        <ele>459</ele>
        <time>2014-05-08T10:01:32.000Z</time>
      </trkpt>
      <trkpt lat="47.25152" lon="6.18126">
        <ele>459</ele>
        <time>2014-05-08T10:01:34.000Z</time>
      </trkpt>
      <trkpt lat="47.25152" lon="6.18126">
        <ele>459</ele>
        <time>2014-05-08T10:01:36.000Z</time>
      </trkpt>
      <trkpt lat="47.25152" lon="6.18126">
        <ele>459</ele>
        <time>2014-05-08T10:01:38.000Z</time>
      </trkpt>
      <trkpt lat="47.25152" lon="6.18126">
        <ele>459</ele>
        <time>2014-05-08T10:01:40.000Z</time>
      </trkpt>
      <trkpt lat="47.25152" lon="6.18126">
        <ele>459</ele>
        <time>2014-05-08T10:01:42.000Z</time>
      </trkpt>
      <trkpt lat="47.25152" lon="6.18126">
        <ele>459</ele>
        <time>2014-05-08T10:01:45.000Z</time>
      </trkpt>
      <trkpt lat="47.25152" lon="6.18126">
        <ele>459</ele>
        <time>2014-05-08T10:01:46.000Z</time>
      </trkpt>
      <trkpt lat="47.25152" lon="6.18126">
        <ele>459</ele>
        <time>2014-05-08T10:01:48.000Z</time>
      </trkpt>
      <trkpt lat="47.25152" lon="6.18126">
        <ele>459</ele>
        <time>2014-05-08T10:01:50.000Z</time>
      </trkpt>
      <trkpt lat="47.25117" lon="6.18154">
        <ele>458</ele>
        <time>2014-05-08T10:01:56.000Z</time>
      </trkpt>
      <trkpt lat="47.25097" lon="6.18169">
        <ele>458</ele>
        <time>2014-05-08T10:01:58.000Z</time>
      </trkpt>
      <trkpt lat="47.25082" lon="6.18178">
        <ele>459</ele>
        <time>2014-05-08T10:02:00.000Z</time>
      </trkpt>
      <trkpt lat="47.25072" lon="6.18184">
        <ele>459</ele>
        <time>2014-05-08T10:02:02.000Z</time>
      </trkpt>
      <trkpt lat="47.25064" lon="6.18187">
        <ele>459</ele>
        <time>2014-05-08T10:02:04.000Z</time>
      </trkpt>
      <trkpt lat="47.25064" lon="6.18187">
        <ele>459</ele>
        <time>2014-05-08T10:02:06.000Z</time>
      </trkpt>
      <trkpt lat="47.25029" lon="6.18195">
        <ele>457</ele>
        <time>2014-05-08T10:02:12.000Z</time>
      </trkpt>
      <trkpt lat="47.25014" lon="6.18194">
        <ele>456</ele>
        <time>2014-05-08T10:02:16.000Z</time>
      </trkpt>
      <trkpt lat="47.25" lon="6.18193">
        <ele>456</ele>
        <time>2014-05-08T10:02:20.000Z</time>
      </trkpt>
      <trkpt lat="47.24987" lon="6.18188">
        <ele>455</ele>
        <time>2014-05-08T10:02:24.000Z</time>
      </trkpt>
      <trkpt lat="47.24975" lon="6.18184">
        <ele>455</ele>
        <time>2014-05-08T10:02:28.000Z</time>
      </trkpt>
      <trkpt lat="47.24975" lon="6.18184">
        <ele>455</ele>
        <time>2014-05-08T10:02:30.000Z</time>
      </trkpt>
      <trkpt lat="47.24975" lon="6.18184">
        <ele>455</ele>
        <time>2014-05-08T10:02:32.000Z</time>
      </trkpt>
      <trkpt lat="47.24975" lon="6.18184">
        <ele>455</ele>
        <time>2014-05-08T10:02:34.000Z</time>
      </trkpt>
      <trkpt lat="47.24975" lon="6.18184">
        <ele>455</ele>
        <time>2014-05-08T10:02:36.000Z</time>
      </trkpt>
      <trkpt lat="47.24975" lon="6.18184">
        <ele>455</ele>
        <time>2014-05-08T10:02:38.000Z</time>
      </trkpt>
      <trkpt lat="47.24975" lon="6.18184">
        <ele>455</ele>
        <time>2014-05-08T10:02:40.000Z</time>
      </trkpt>
      <trkpt lat="47.24975" lon="6.18184">
        <ele>455</ele>
        <time>2014-05-08T10:02:42.000Z</time>
      </trkpt>
      <trkpt lat="47.24975" lon="6.18184">
        <ele>455</ele>
        <time>2014-05-08T10:02:44.000Z</time>
      </trkpt>
      <trkpt lat="47.24975" lon="6.18184">
        <ele>455</ele>
        <time>2014-05-08T10:02:46.000Z</time>
      </trkpt>
      <trkpt lat="47.24975" lon="6.18184">
        <ele>455</ele>
        <time>2014-05-08T10:02:48.000Z</time>
      </trkpt>
      <trkpt lat="47.24975" lon="6.18184">
        <ele>455</ele>
        <time>2014-05-08T10:02:50.000Z</time>
      </trkpt>
      <trkpt lat="47.24975" lon="6.18184">
        <ele>455</ele>
        <time>2014-05-08T10:02:52.000Z</time>
      </trkpt>
      <trkpt lat="47.24975" lon="6.18184">
        <ele>455</ele>
        <time>2014-05-08T10:02:54.000Z</time>
      </trkpt>
      <trkpt lat="47.24975" lon="6.18184">
        <ele>455</ele>
        <time>2014-05-08T10:02:56.000Z</time>
      </trkpt>
      <trkpt lat="47.24975" lon="6.18184">
        <ele>455</ele>
        <time>2014-05-08T10:02:58.000Z</time>
      </trkpt>
      <trkpt lat="47.24975" lon="6.18184">
        <ele>455</ele>
        <time>2014-05-08T10:03:00.000Z</time>
      </trkpt>
      <trkpt lat="47.24975" lon="6.18184">
        <ele>455</ele>
        <time>2014-05-08T10:03:02.000Z</time>
      </trkpt>
      <trkpt lat="47.24975" lon="6.18184">
        <ele>455</ele>
        <time>2014-05-08T10:03:04.000Z</time>
      </trkpt>
      <trkpt lat="47.24975" lon="6.18184">
        <ele>455</ele>
        <time>2014-05-08T10:03:06.000Z</time>
      </trkpt>
      <trkpt lat="47.24975" lon="6.18184">
        <ele>455</ele>
        <time>2014-05-08T10:03:08.000Z</time>
      </trkpt>
      <trkpt lat="47.24975" lon="6.18184">
        <ele>455</ele>
        <time>2014-05-08T10:03:10.000Z</time>
      </trkpt>
      <trkpt lat="47.24975" lon="6.18184">
        <ele>455</ele>
        <time>2014-05-08T10:03:12.000Z</time>
      </trkpt>
      <trkpt lat="47.24958" lon="6.18174">
        <ele>463</ele>
        <time>2014-05-08T10:05:50.000Z</time>
      </trkpt>
      <trkpt lat="47.24951" lon="6.18165">
        <ele>464</ele>
        <time>2014-05-08T10:05:52.000Z</time>
      </trkpt>
      <trkpt lat="47.24948" lon="6.18157">
        <ele>465</ele>
        <time>2014-05-08T10:05:54.000Z</time>
      </trkpt>
      <trkpt lat="47.24947" lon="6.18149">
        <ele>463</ele>
        <time>2014-05-08T10:05:56.000Z</time>
      </trkpt>
      <trkpt lat="47.24949" lon="6.1814">
        <ele>464</ele>
        <time>2014-05-08T10:05:58.000Z</time>
      </trkpt>
      <trkpt lat="47.24954" lon="6.18121">
        <ele>464</ele>
        <time>2014-05-08T10:06:00.000Z</time>
      </trkpt>
      <trkpt lat="47.2495" lon="6.18099">
        <ele>463</ele>
        <time>2014-05-08T10:06:04.000Z</time>
      </trkpt>
      <trkpt lat="47.24943" lon="6.18085">
        <ele>462</ele>
        <time>2014-05-08T10:06:06.000Z</time>
      </trkpt>
      <trkpt lat="47.24934" lon="6.18058">
        <ele>461</ele>
        <time>2014-05-08T10:06:10.000Z</time>
      </trkpt>
      <trkpt lat="47.24929" lon="6.18041">
        <ele>459</ele>
        <time>2014-05-08T10:06:12.000Z</time>
      </trkpt>
      <trkpt lat="47.24923" lon="6.18022">
        <ele>457</ele>
        <time>2014-05-08T10:06:14.000Z</time>
      </trkpt>
      <trkpt lat="47.24917" lon="6.18006">
        <ele>458</ele>
        <time>2014-05-08T10:06:16.000Z</time>
      </trkpt>
      <trkpt lat="47.24911" lon="6.17988">
        <ele>457</ele>
        <time>2014-05-08T10:06:18.000Z</time>
      </trkpt>
      <trkpt lat="47.24905" lon="6.17969">
        <ele>456</ele>
        <time>2014-05-08T10:06:20.000Z</time>
      </trkpt>
      <trkpt lat="47.24899" lon="6.17952">
        <ele>456</ele>
        <time>2014-05-08T10:06:22.000Z</time>
      </trkpt>
      <trkpt lat="47.24897" lon="6.17933">
        <ele>456</ele>
        <time>2014-05-08T10:06:24.000Z</time>
      </trkpt>
      <trkpt lat="47.249" lon="6.17919">
        <ele>455</ele>
        <time>2014-05-08T10:06:26.000Z</time>
      </trkpt>
      <trkpt lat="47.24905" lon="6.17906">
        <ele>453</ele>
        <time>2014-05-08T10:06:28.000Z</time>
      </trkpt>
      <trkpt lat="47.2491" lon="6.17892">
        <ele>453</ele>
        <time>2014-05-08T10:06:30.000Z</time>
      </trkpt>
      <trkpt lat="47.2491" lon="6.17892">
        <ele>453</ele>
        <time>2014-05-08T10:06:32.000Z</time>
      </trkpt>
      <trkpt lat="47.2491" lon="6.17892">
        <ele>453</ele>
        <time>2014-05-08T10:06:34.000Z</time>
      </trkpt>
      <trkpt lat="47.2491" lon="6.17892">
        <ele>453</ele>
        <time>2014-05-08T10:06:36.000Z</time>
      </trkpt>
      <trkpt lat="47.2491" lon="6.17892">
        <ele>453</ele>
        <time>2014-05-08T10:06:38.000Z</time>
      </trkpt>
      <trkpt lat="47.2491" lon="6.17892">
        <ele>453</ele>
        <time>2014-05-08T10:06:40.000Z</time>
      </trkpt>
      <trkpt lat="47.2491" lon="6.17892">
        <ele>453</ele>
        <time>2014-05-08T10:06:42.000Z</time>
      </trkpt>
      <trkpt lat="47.2491" lon="6.17892">
        <ele>453</ele>
        <time>2014-05-08T10:06:44.000Z</time>
      </trkpt>
      <trkpt lat="47.2491" lon="6.17892">
        <ele>453</ele>
        <time>2014-05-08T10:06:46.000Z</time>
      </trkpt>
      <trkpt lat="47.2491" lon="6.17892">
        <ele>453</ele>
        <time>2014-05-08T10:06:48.000Z</time>
      </trkpt>
      <trkpt lat="47.2491" lon="6.17892">
        <ele>453</ele>
        <time>2014-05-08T10:06:50.000Z</time>
      </trkpt>
      <trkpt lat="47.2491" lon="6.17892">
        <ele>453</ele>
        <time>2014-05-08T10:06:52.000Z</time>
      </trkpt>
      <trkpt lat="47.2491" lon="6.17892">
        <ele>453</ele>
        <time>2014-05-08T10:06:54.000Z</time>
      </trkpt>
      <trkpt lat="47.2491" lon="6.17892">
        <ele>453</ele>
        <time>2014-05-08T10:06:56.000Z</time>
      </trkpt>
      <trkpt lat="47.2491" lon="6.17892">
        <ele>453</ele>
        <time>2014-05-08T10:06:58.000Z</time>
      </trkpt>
      <trkpt lat="47.2491" lon="6.17892">
        <ele>453</ele>
        <time>2014-05-08T10:07:00.000Z</time>
      </trkpt>
      <trkpt lat="47.2491" lon="6.17892">
        <ele>453</ele>
        <time>2014-05-08T10:07:02.000Z</time>
      </trkpt>
      <trkpt lat="47.2491" lon="6.17892">
        <ele>453</ele>
        <time>2014-05-08T10:07:04.000Z</time>
      </trkpt>
    </trkseg>
  </trk>
</gpx>